<?xml version="1.0" encoding="UTF-8" standalone="no" ?>
<gpx xmlns="http://www.topografix.com/GPX/1/1" xmlns:xsi="http://www.w3.org/2001/XMLSchema-instance" xsi:schemaLocation="http://www.topografix.com/GPX/1/1 http://www.topografix.com/GPX/1/1/gpx.xsd" version="1.1" creator="VisuGPX - https://www.visugpx.com">
  <metadata>
    <name>Le Brignon  24km</name>
    <desc><![CDATA[fait le 06/04/2025 sortie proposée par leCDTE43 , au départ des Ecuries de l'Aventure - viste du Chateau d'Arlempdes]]></desc>
  </metadata>
  <trk>
    <name><![CDATA[2025-04-06 17:23:44]]></name>
    <extensions>
      <line xmlns="http://www.topografix.com/GPX/gpx_style/0/2">
        <color>0000FF</color>
        <width>4</width>
      </line>
    </extensions>
    <trkseg>
      <trkpt lat="44.8891" lon="3.8894">
        <ele>995.58</ele>
        <time>2025-04-06T08:11:04Z</time>
      </trkpt>
      <trkpt lat="44.88918" lon="3.8894">
        <ele>994.62</ele>
        <time>2025-04-06T08:11:24Z</time>
      </trkpt>
      <trkpt lat="44.88914" lon="3.88943">
        <ele>994.14</ele>
        <time>2025-04-06T08:11:31Z</time>
      </trkpt>
      <trkpt lat="44.88909" lon="3.88902">
        <ele>993.18</ele>
        <time>2025-04-06T08:11:49Z</time>
      </trkpt>
      <trkpt lat="44.88902" lon="3.88854">
        <ele>993.18</ele>
        <time>2025-04-06T08:12:11Z</time>
      </trkpt>
      <trkpt lat="44.88895" lon="3.88801">
        <ele>995.1</ele>
        <time>2025-04-06T08:12:34Z</time>
      </trkpt>
      <trkpt lat="44.88892" lon="3.88744">
        <ele>997.51</ele>
        <time>2025-04-06T08:12:58Z</time>
      </trkpt>
      <trkpt lat="44.88888" lon="3.88707">
        <ele>1001.35</ele>
        <time>2025-04-06T08:13:10Z</time>
      </trkpt>
      <trkpt lat="44.88885" lon="3.88655">
        <ele>1004.72</ele>
        <time>2025-04-06T08:13:34Z</time>
      </trkpt>
      <trkpt lat="44.8888" lon="3.88603">
        <ele>1007.12</ele>
        <time>2025-04-06T08:13:58Z</time>
      </trkpt>
      <trkpt lat="44.88878" lon="3.8855">
        <ele>1007.6</ele>
        <time>2025-04-06T08:14:22Z</time>
      </trkpt>
      <trkpt lat="44.88875" lon="3.8849">
        <ele>1009.04</ele>
        <time>2025-04-06T08:14:49Z</time>
      </trkpt>
      <trkpt lat="44.88875" lon="3.88446">
        <ele>1009.52</ele>
        <time>2025-04-06T08:15:10Z</time>
      </trkpt>
      <trkpt lat="44.8888" lon="3.88387">
        <ele>1012.89</ele>
        <time>2025-04-06T08:15:37Z</time>
      </trkpt>
      <trkpt lat="44.8888" lon="3.88328">
        <ele>1014.81</ele>
        <time>2025-04-06T08:16:05Z</time>
      </trkpt>
      <trkpt lat="44.88878" lon="3.88278">
        <ele>1016.73</ele>
        <time>2025-04-06T08:16:28Z</time>
      </trkpt>
      <trkpt lat="44.88882" lon="3.88245">
        <ele>1017.69</ele>
        <time>2025-04-06T08:16:47Z</time>
      </trkpt>
      <trkpt lat="44.88882" lon="3.88208">
        <ele>1019.13</ele>
        <time>2025-04-06T08:17:03Z</time>
      </trkpt>
      <trkpt lat="44.8888" lon="3.88169">
        <ele>1022.02</ele>
        <time>2025-04-06T08:17:20Z</time>
      </trkpt>
      <trkpt lat="44.88861" lon="3.88132">
        <ele>1024.9</ele>
        <time>2025-04-06T08:17:41Z</time>
      </trkpt>
      <trkpt lat="44.88852" lon="3.88121">
        <ele>1025.86</ele>
        <time>2025-04-06T08:17:55Z</time>
      </trkpt>
      <trkpt lat="44.88833" lon="3.88113">
        <ele>1031.15</ele>
        <time>2025-04-06T08:18:15Z</time>
      </trkpt>
      <trkpt lat="44.88807" lon="3.88093">
        <ele>1032.11</ele>
        <time>2025-04-06T08:18:31Z</time>
      </trkpt>
      <trkpt lat="44.88805" lon="3.88094">
        <ele>1031.63</ele>
        <time>2025-04-06T08:18:32Z</time>
      </trkpt>
      <trkpt lat="44.88802" lon="3.88094">
        <ele>1031.15</ele>
        <time>2025-04-06T08:18:33Z</time>
      </trkpt>
      <trkpt lat="44.88774" lon="3.88111">
        <ele>1029.23</ele>
        <time>2025-04-06T08:18:55Z</time>
      </trkpt>
      <trkpt lat="44.88755" lon="3.88121">
        <ele>1031.15</ele>
        <time>2025-04-06T08:19:15Z</time>
      </trkpt>
      <trkpt lat="44.8875" lon="3.88113">
        <ele>1032.11</ele>
        <time>2025-04-06T08:19:22Z</time>
      </trkpt>
      <trkpt lat="44.88726" lon="3.88078">
        <ele>1031.63</ele>
        <time>2025-04-06T08:19:42Z</time>
      </trkpt>
      <trkpt lat="44.88708" lon="3.88068">
        <ele>1032.11</ele>
        <time>2025-04-06T08:19:59Z</time>
      </trkpt>
      <trkpt lat="44.88707" lon="3.88067">
        <ele>1032.11</ele>
        <time>2025-04-06T08:20:00Z</time>
      </trkpt>
      <trkpt lat="44.88705" lon="3.88066">
        <ele>1032.11</ele>
        <time>2025-04-06T08:20:01Z</time>
      </trkpt>
      <trkpt lat="44.88704" lon="3.88065">
        <ele>1032.11</ele>
        <time>2025-04-06T08:20:02Z</time>
      </trkpt>
      <trkpt lat="44.88702" lon="3.88063">
        <ele>1032.11</ele>
        <time>2025-04-06T08:20:03Z</time>
      </trkpt>
      <trkpt lat="44.88665" lon="3.88054">
        <ele>1032.11</ele>
        <time>2025-04-06T08:20:26Z</time>
      </trkpt>
      <trkpt lat="44.88646" lon="3.8805">
        <ele>1033.07</ele>
        <time>2025-04-06T08:20:42Z</time>
      </trkpt>
      <trkpt lat="44.88616" lon="3.8803">
        <ele>1035.48</ele>
        <time>2025-04-06T08:21:02Z</time>
      </trkpt>
      <trkpt lat="44.88591" lon="3.88022">
        <ele>1032.11</ele>
        <time>2025-04-06T08:21:23Z</time>
      </trkpt>
      <trkpt lat="44.88574" lon="3.88009">
        <ele>1033.07</ele>
        <time>2025-04-06T08:21:39Z</time>
      </trkpt>
      <trkpt lat="44.88546" lon="3.88016">
        <ele>1033.55</ele>
        <time>2025-04-06T08:21:55Z</time>
      </trkpt>
      <trkpt lat="44.88523" lon="3.88021">
        <ele>1035</ele>
        <time>2025-04-06T08:22:11Z</time>
      </trkpt>
      <trkpt lat="44.88495" lon="3.88033">
        <ele>1034.04</ele>
        <time>2025-04-06T08:22:32Z</time>
      </trkpt>
      <trkpt lat="44.88472" lon="3.88035">
        <ele>1039.32</ele>
        <time>2025-04-06T08:22:56Z</time>
      </trkpt>
      <trkpt lat="44.88434" lon="3.88032">
        <ele>1040.76</ele>
        <time>2025-04-06T08:23:16Z</time>
      </trkpt>
      <trkpt lat="44.88395" lon="3.88044">
        <ele>1036.44</ele>
        <time>2025-04-06T08:23:36Z</time>
      </trkpt>
      <trkpt lat="44.88352" lon="3.88054">
        <ele>1031.63</ele>
        <time>2025-04-06T08:23:52Z</time>
      </trkpt>
      <trkpt lat="44.88319" lon="3.88061">
        <ele>1029.23</ele>
        <time>2025-04-06T08:24:09Z</time>
      </trkpt>
      <trkpt lat="44.88286" lon="3.88077">
        <ele>1029.71</ele>
        <time>2025-04-06T08:24:29Z</time>
      </trkpt>
      <trkpt lat="44.88258" lon="3.88082">
        <ele>1028.75</ele>
        <time>2025-04-06T08:24:46Z</time>
      </trkpt>
      <trkpt lat="44.88229" lon="3.88079">
        <ele>1029.71</ele>
        <time>2025-04-06T08:25:05Z</time>
      </trkpt>
      <trkpt lat="44.88195" lon="3.88077">
        <ele>1030.19</ele>
        <time>2025-04-06T08:25:25Z</time>
      </trkpt>
      <trkpt lat="44.88182" lon="3.88074">
        <ele>1027.79</ele>
        <time>2025-04-06T08:25:41Z</time>
      </trkpt>
      <trkpt lat="44.88159" lon="3.88082">
        <ele>1026.83</ele>
        <time>2025-04-06T08:25:58Z</time>
      </trkpt>
      <trkpt lat="44.88133" lon="3.88105">
        <ele>1024.9</ele>
        <time>2025-04-06T08:26:17Z</time>
      </trkpt>
      <trkpt lat="44.88105" lon="3.88122">
        <ele>1021.54</ele>
        <time>2025-04-06T08:26:34Z</time>
      </trkpt>
      <trkpt lat="44.8808" lon="3.88136">
        <ele>1021.54</ele>
        <time>2025-04-06T08:26:52Z</time>
      </trkpt>
      <trkpt lat="44.88047" lon="3.88148">
        <ele>1018.65</ele>
        <time>2025-04-06T08:27:11Z</time>
      </trkpt>
      <trkpt lat="44.88019" lon="3.88151">
        <ele>1017.21</ele>
        <time>2025-04-06T08:27:27Z</time>
      </trkpt>
      <trkpt lat="44.87991" lon="3.88162">
        <ele>1019.13</ele>
        <time>2025-04-06T08:27:43Z</time>
      </trkpt>
      <trkpt lat="44.87959" lon="3.88184">
        <ele>1018.65</ele>
        <time>2025-04-06T08:28:04Z</time>
      </trkpt>
      <trkpt lat="44.87935" lon="3.88203">
        <ele>1015.77</ele>
        <time>2025-04-06T08:28:21Z</time>
      </trkpt>
      <trkpt lat="44.87906" lon="3.88221">
        <ele>1013.37</ele>
        <time>2025-04-06T08:28:38Z</time>
      </trkpt>
      <trkpt lat="44.87879" lon="3.88236">
        <ele>1010.96</ele>
        <time>2025-04-06T08:28:55Z</time>
      </trkpt>
      <trkpt lat="44.87849" lon="3.88252">
        <ele>1010.48</ele>
        <time>2025-04-06T08:29:13Z</time>
      </trkpt>
      <trkpt lat="44.87823" lon="3.88259">
        <ele>1010</ele>
        <time>2025-04-06T08:29:29Z</time>
      </trkpt>
      <trkpt lat="44.87796" lon="3.88266">
        <ele>1009.52</ele>
        <time>2025-04-06T08:29:44Z</time>
      </trkpt>
      <trkpt lat="44.87764" lon="3.88274">
        <ele>1009.04</ele>
        <time>2025-04-06T08:30:02Z</time>
      </trkpt>
      <trkpt lat="44.87732" lon="3.8827">
        <ele>1006.64</ele>
        <time>2025-04-06T08:30:20Z</time>
      </trkpt>
      <trkpt lat="44.87707" lon="3.88268">
        <ele>1005.68</ele>
        <time>2025-04-06T08:30:37Z</time>
      </trkpt>
      <trkpt lat="44.87681" lon="3.88266">
        <ele>1008.08</ele>
        <time>2025-04-06T08:30:54Z</time>
      </trkpt>
      <trkpt lat="44.87658" lon="3.88263">
        <ele>1011.44</ele>
        <time>2025-04-06T08:31:09Z</time>
      </trkpt>
      <trkpt lat="44.87628" lon="3.8826">
        <ele>1011.93</ele>
        <time>2025-04-06T08:31:26Z</time>
      </trkpt>
      <trkpt lat="44.87601" lon="3.88261">
        <ele>1013.37</ele>
        <time>2025-04-06T08:31:41Z</time>
      </trkpt>
      <trkpt lat="44.87577" lon="3.88245">
        <ele>1017.21</ele>
        <time>2025-04-06T08:32:00Z</time>
      </trkpt>
      <trkpt lat="44.87569" lon="3.88237">
        <ele>1017.21</ele>
        <time>2025-04-06T08:32:04Z</time>
      </trkpt>
      <trkpt lat="44.87557" lon="3.88225">
        <ele>1019.62</ele>
        <time>2025-04-06T08:32:14Z</time>
      </trkpt>
      <trkpt lat="44.87545" lon="3.88226">
        <ele>1022.5</ele>
        <time>2025-04-06T08:32:23Z</time>
      </trkpt>
      <trkpt lat="44.87544" lon="3.88227">
        <ele>1022.5</ele>
        <time>2025-04-06T08:32:24Z</time>
      </trkpt>
      <trkpt lat="44.87543" lon="3.88228">
        <ele>1022.98</ele>
        <time>2025-04-06T08:32:25Z</time>
      </trkpt>
      <trkpt lat="44.87541" lon="3.88229">
        <ele>1023.46</ele>
        <time>2025-04-06T08:32:26Z</time>
      </trkpt>
      <trkpt lat="44.8754" lon="3.8823">
        <ele>1023.94</ele>
        <time>2025-04-06T08:32:27Z</time>
      </trkpt>
      <trkpt lat="44.87539" lon="3.88231">
        <ele>1024.42</ele>
        <time>2025-04-06T08:32:28Z</time>
      </trkpt>
      <trkpt lat="44.87538" lon="3.88232">
        <ele>1024.9</ele>
        <time>2025-04-06T08:32:29Z</time>
      </trkpt>
      <trkpt lat="44.87515" lon="3.88229">
        <ele>1028.75</ele>
        <time>2025-04-06T08:32:45Z</time>
      </trkpt>
      <trkpt lat="44.87507" lon="3.88222">
        <ele>1028.27</ele>
        <time>2025-04-06T08:32:51Z</time>
      </trkpt>
      <trkpt lat="44.87505" lon="3.88221">
        <ele>1028.27</ele>
        <time>2025-04-06T08:32:52Z</time>
      </trkpt>
      <trkpt lat="44.87494" lon="3.88213">
        <ele>1029.23</ele>
        <time>2025-04-06T08:33:01Z</time>
      </trkpt>
      <trkpt lat="44.87467" lon="3.8821">
        <ele>1034.52</ele>
        <time>2025-04-06T08:33:19Z</time>
      </trkpt>
      <trkpt lat="44.87438" lon="3.88206">
        <ele>1038.36</ele>
        <time>2025-04-06T08:33:37Z</time>
      </trkpt>
      <trkpt lat="44.87415" lon="3.88195">
        <ele>1037.4</ele>
        <time>2025-04-06T08:33:52Z</time>
      </trkpt>
      <trkpt lat="44.87396" lon="3.88194">
        <ele>1038.84</ele>
        <time>2025-04-06T08:34:07Z</time>
      </trkpt>
      <trkpt lat="44.87371" lon="3.88206">
        <ele>1045.09</ele>
        <time>2025-04-06T08:34:24Z</time>
      </trkpt>
      <trkpt lat="44.87363" lon="3.8821">
        <ele>1045.57</ele>
        <time>2025-04-06T08:34:31Z</time>
      </trkpt>
      <trkpt lat="44.87348" lon="3.88226">
        <ele>1045.57</ele>
        <time>2025-04-06T08:34:48Z</time>
      </trkpt>
      <trkpt lat="44.87321" lon="3.88233">
        <ele>1043.17</ele>
        <time>2025-04-06T08:35:04Z</time>
      </trkpt>
      <trkpt lat="44.87298" lon="3.88239">
        <ele>1041.73</ele>
        <time>2025-04-06T08:35:20Z</time>
      </trkpt>
      <trkpt lat="44.87273" lon="3.88245">
        <ele>1037.4</ele>
        <time>2025-04-06T08:35:35Z</time>
      </trkpt>
      <trkpt lat="44.8725" lon="3.88263">
        <ele>1036.92</ele>
        <time>2025-04-06T08:35:54Z</time>
      </trkpt>
      <trkpt lat="44.87225" lon="3.88257">
        <ele>1035</ele>
        <time>2025-04-06T08:36:04Z</time>
      </trkpt>
      <trkpt lat="44.87208" lon="3.88236">
        <ele>1033.55</ele>
        <time>2025-04-06T08:36:21Z</time>
      </trkpt>
      <trkpt lat="44.87208" lon="3.88235">
        <ele>1033.07</ele>
        <time>2025-04-06T08:36:22Z</time>
      </trkpt>
      <trkpt lat="44.87207" lon="3.88234">
        <ele>1033.07</ele>
        <time>2025-04-06T08:36:23Z</time>
      </trkpt>
      <trkpt lat="44.87183" lon="3.88229">
        <ele>1037.4</ele>
        <time>2025-04-06T08:36:45Z</time>
      </trkpt>
      <trkpt lat="44.87153" lon="3.88214">
        <ele>1042.21</ele>
        <time>2025-04-06T08:37:07Z</time>
      </trkpt>
      <trkpt lat="44.87132" lon="3.88212">
        <ele>1042.21</ele>
        <time>2025-04-06T08:37:23Z</time>
      </trkpt>
      <trkpt lat="44.87105" lon="3.88232">
        <ele>1042.69</ele>
        <time>2025-04-06T08:37:42Z</time>
      </trkpt>
      <trkpt lat="44.87075" lon="3.88232">
        <ele>1041.73</ele>
        <time>2025-04-06T08:38:01Z</time>
      </trkpt>
      <trkpt lat="44.87056" lon="3.88202">
        <ele>1045.09</ele>
        <time>2025-04-06T08:38:19Z</time>
      </trkpt>
      <trkpt lat="44.87036" lon="3.88166">
        <ele>1047.49</ele>
        <time>2025-04-06T08:38:39Z</time>
      </trkpt>
      <trkpt lat="44.87017" lon="3.88128">
        <ele>1047.01</ele>
        <time>2025-04-06T08:39:00Z</time>
      </trkpt>
      <trkpt lat="44.87003" lon="3.88085">
        <ele>1047.49</ele>
        <time>2025-04-06T08:39:23Z</time>
      </trkpt>
      <trkpt lat="44.86987" lon="3.88042">
        <ele>1047.01</ele>
        <time>2025-04-06T08:39:43Z</time>
      </trkpt>
      <trkpt lat="44.8696" lon="3.88015">
        <ele>1047.49</ele>
        <time>2025-04-06T08:40:04Z</time>
      </trkpt>
      <trkpt lat="44.86939" lon="3.87995">
        <ele>1048.94</ele>
        <time>2025-04-06T08:40:20Z</time>
      </trkpt>
      <trkpt lat="44.86916" lon="3.87965">
        <ele>1050.38</ele>
        <time>2025-04-06T08:40:39Z</time>
      </trkpt>
      <trkpt lat="44.86895" lon="3.87939">
        <ele>1052.3</ele>
        <time>2025-04-06T08:40:56Z</time>
      </trkpt>
      <trkpt lat="44.86876" lon="3.87908">
        <ele>1053.26</ele>
        <time>2025-04-06T08:41:15Z</time>
      </trkpt>
      <trkpt lat="44.86855" lon="3.87871">
        <ele>1055.67</ele>
        <time>2025-04-06T08:41:35Z</time>
      </trkpt>
      <trkpt lat="44.86826" lon="3.87847">
        <ele>1059.03</ele>
        <time>2025-04-06T08:41:56Z</time>
      </trkpt>
      <trkpt lat="44.86795" lon="3.87843">
        <ele>1063.84</ele>
        <time>2025-04-06T08:42:15Z</time>
      </trkpt>
      <trkpt lat="44.86766" lon="3.87836">
        <ele>1066.72</ele>
        <time>2025-04-06T08:42:30Z</time>
      </trkpt>
      <trkpt lat="44.86734" lon="3.87825">
        <ele>1069.6</ele>
        <time>2025-04-06T08:42:47Z</time>
      </trkpt>
      <trkpt lat="44.86705" lon="3.87819">
        <ele>1075.37</ele>
        <time>2025-04-06T08:43:07Z</time>
      </trkpt>
      <trkpt lat="44.86681" lon="3.87793">
        <ele>1076.81</ele>
        <time>2025-04-06T08:43:28Z</time>
      </trkpt>
      <trkpt lat="44.86661" lon="3.87755">
        <ele>1079.22</ele>
        <time>2025-04-06T08:43:43Z</time>
      </trkpt>
      <trkpt lat="44.86649" lon="3.87722">
        <ele>1082.1</ele>
        <time>2025-04-06T08:43:57Z</time>
      </trkpt>
      <trkpt lat="44.86638" lon="3.87686">
        <ele>1080.66</ele>
        <time>2025-04-06T08:44:14Z</time>
      </trkpt>
      <trkpt lat="44.86623" lon="3.87657">
        <ele>1078.26</ele>
        <time>2025-04-06T08:44:33Z</time>
      </trkpt>
      <trkpt lat="44.86607" lon="3.87632">
        <ele>1078.26</ele>
        <time>2025-04-06T08:44:49Z</time>
      </trkpt>
      <trkpt lat="44.86593" lon="3.87601">
        <ele>1078.74</ele>
        <time>2025-04-06T08:45:09Z</time>
      </trkpt>
      <trkpt lat="44.86573" lon="3.87568">
        <ele>1077.29</ele>
        <time>2025-04-06T08:45:31Z</time>
      </trkpt>
      <trkpt lat="44.86557" lon="3.87538">
        <ele>1077.29</ele>
        <time>2025-04-06T08:45:47Z</time>
      </trkpt>
      <trkpt lat="44.86542" lon="3.87506">
        <ele>1076.81</ele>
        <time>2025-04-06T08:46:04Z</time>
      </trkpt>
      <trkpt lat="44.86529" lon="3.87475">
        <ele>1074.89</ele>
        <time>2025-04-06T08:46:20Z</time>
      </trkpt>
      <trkpt lat="44.86509" lon="3.8744">
        <ele>1072.01</ele>
        <time>2025-04-06T08:46:41Z</time>
      </trkpt>
      <trkpt lat="44.86489" lon="3.8741">
        <ele>1070.57</ele>
        <time>2025-04-06T08:46:58Z</time>
      </trkpt>
      <trkpt lat="44.86475" lon="3.87376">
        <ele>1069.12</ele>
        <time>2025-04-06T08:47:16Z</time>
      </trkpt>
      <trkpt lat="44.8646" lon="3.87351">
        <ele>1069.6</ele>
        <time>2025-04-06T08:47:33Z</time>
      </trkpt>
      <trkpt lat="44.86446" lon="3.87319">
        <ele>1070.08</ele>
        <time>2025-04-06T08:47:49Z</time>
      </trkpt>
      <trkpt lat="44.86424" lon="3.87296">
        <ele>1069.12</ele>
        <time>2025-04-06T08:48:07Z</time>
      </trkpt>
      <trkpt lat="44.86397" lon="3.87279">
        <ele>1071.05</ele>
        <time>2025-04-06T08:48:26Z</time>
      </trkpt>
      <trkpt lat="44.86372" lon="3.87255">
        <ele>1072.97</ele>
        <time>2025-04-06T08:48:43Z</time>
      </trkpt>
      <trkpt lat="44.86347" lon="3.87223">
        <ele>1077.78</ele>
        <time>2025-04-06T08:49:04Z</time>
      </trkpt>
      <trkpt lat="44.86324" lon="3.87188">
        <ele>1077.29</ele>
        <time>2025-04-06T08:49:24Z</time>
      </trkpt>
      <trkpt lat="44.86308" lon="3.87167">
        <ele>1076.33</ele>
        <time>2025-04-06T08:49:38Z</time>
      </trkpt>
      <trkpt lat="44.86281" lon="3.8713">
        <ele>1071.53</ele>
        <time>2025-04-06T08:50:00Z</time>
      </trkpt>
      <trkpt lat="44.86258" lon="3.87107">
        <ele>1062.87</ele>
        <time>2025-04-06T08:50:21Z</time>
      </trkpt>
      <trkpt lat="44.86241" lon="3.87096">
        <ele>1059.99</ele>
        <time>2025-04-06T08:50:30Z</time>
      </trkpt>
      <trkpt lat="44.86239" lon="3.87094">
        <ele>1059.99</ele>
        <time>2025-04-06T08:50:31Z</time>
      </trkpt>
      <trkpt lat="44.86237" lon="3.87092">
        <ele>1059.51</ele>
        <time>2025-04-06T08:50:32Z</time>
      </trkpt>
      <trkpt lat="44.86208" lon="3.87066">
        <ele>1054.22</ele>
        <time>2025-04-06T08:50:52Z</time>
      </trkpt>
      <trkpt lat="44.86186" lon="3.87046">
        <ele>1052.78</ele>
        <time>2025-04-06T08:51:13Z</time>
      </trkpt>
      <trkpt lat="44.8617" lon="3.87027">
        <ele>1048.94</ele>
        <time>2025-04-06T08:51:31Z</time>
      </trkpt>
      <trkpt lat="44.86146" lon="3.87028">
        <ele>1045.09</ele>
        <time>2025-04-06T08:51:50Z</time>
      </trkpt>
      <trkpt lat="44.86137" lon="3.87038">
        <ele>1040.28</ele>
        <time>2025-04-06T08:52:00Z</time>
      </trkpt>
      <trkpt lat="44.86117" lon="3.87069">
        <ele>1037.4</ele>
        <time>2025-04-06T08:52:17Z</time>
      </trkpt>
      <trkpt lat="44.86105" lon="3.87092">
        <ele>1037.88</ele>
        <time>2025-04-06T08:52:28Z</time>
      </trkpt>
      <trkpt lat="44.86101" lon="3.8713">
        <ele>1039.8</ele>
        <time>2025-04-06T08:52:46Z</time>
      </trkpt>
      <trkpt lat="44.86101" lon="3.87132">
        <ele>1040.28</ele>
        <time>2025-04-06T08:52:47Z</time>
      </trkpt>
      <trkpt lat="44.86105" lon="3.87184">
        <ele>1040.76</ele>
        <time>2025-04-06T08:53:05Z</time>
      </trkpt>
      <trkpt lat="44.86105" lon="3.87248">
        <ele>1040.28</ele>
        <time>2025-04-06T08:53:23Z</time>
      </trkpt>
      <trkpt lat="44.861" lon="3.87289">
        <ele>1036.92</ele>
        <time>2025-04-06T08:53:42Z</time>
      </trkpt>
      <trkpt lat="44.86102" lon="3.87338">
        <ele>1043.17</ele>
        <time>2025-04-06T08:54:02Z</time>
      </trkpt>
      <trkpt lat="44.86091" lon="3.87377">
        <ele>1042.69</ele>
        <time>2025-04-06T08:54:22Z</time>
      </trkpt>
      <trkpt lat="44.86079" lon="3.87423">
        <ele>1044.13</ele>
        <time>2025-04-06T08:54:43Z</time>
      </trkpt>
      <trkpt lat="44.86065" lon="3.87472">
        <ele>1047.49</ele>
        <time>2025-04-06T08:55:06Z</time>
      </trkpt>
      <trkpt lat="44.86049" lon="3.87521">
        <ele>1050.86</ele>
        <time>2025-04-06T08:55:27Z</time>
      </trkpt>
      <trkpt lat="44.86044" lon="3.87567">
        <ele>1052.78</ele>
        <time>2025-04-06T08:55:46Z</time>
      </trkpt>
      <trkpt lat="44.8604" lon="3.87614">
        <ele>1055.67</ele>
        <time>2025-04-06T08:56:06Z</time>
      </trkpt>
      <trkpt lat="44.86032" lon="3.87659">
        <ele>1056.15</ele>
        <time>2025-04-06T08:56:26Z</time>
      </trkpt>
      <trkpt lat="44.86021" lon="3.87697">
        <ele>1056.15</ele>
        <time>2025-04-06T08:56:43Z</time>
      </trkpt>
      <trkpt lat="44.86007" lon="3.87742">
        <ele>1056.15</ele>
        <time>2025-04-06T08:57:01Z</time>
      </trkpt>
      <trkpt lat="44.85999" lon="3.87785">
        <ele>1058.07</ele>
        <time>2025-04-06T08:57:20Z</time>
      </trkpt>
      <trkpt lat="44.85996" lon="3.87836">
        <ele>1059.03</ele>
        <time>2025-04-06T08:57:41Z</time>
      </trkpt>
      <trkpt lat="44.85999" lon="3.87882">
        <ele>1060.47</ele>
        <time>2025-04-06T08:58:01Z</time>
      </trkpt>
      <trkpt lat="44.86002" lon="3.8793">
        <ele>1061.43</ele>
        <time>2025-04-06T08:58:22Z</time>
      </trkpt>
      <trkpt lat="44.86006" lon="3.87975">
        <ele>1061.43</ele>
        <time>2025-04-06T08:58:44Z</time>
      </trkpt>
      <trkpt lat="44.86012" lon="3.88028">
        <ele>1062.87</ele>
        <time>2025-04-06T08:59:07Z</time>
      </trkpt>
      <trkpt lat="44.86009" lon="3.88074">
        <ele>1064.8</ele>
        <time>2025-04-06T08:59:28Z</time>
      </trkpt>
      <trkpt lat="44.85986" lon="3.88088">
        <ele>1066.24</ele>
        <time>2025-04-06T08:59:45Z</time>
      </trkpt>
      <trkpt lat="44.85955" lon="3.88108">
        <ele>1069.12</ele>
        <time>2025-04-06T09:00:08Z</time>
      </trkpt>
      <trkpt lat="44.85921" lon="3.88114">
        <ele>1072.01</ele>
        <time>2025-04-06T09:00:28Z</time>
      </trkpt>
      <trkpt lat="44.85886" lon="3.88117">
        <ele>1076.81</ele>
        <time>2025-04-06T09:00:51Z</time>
      </trkpt>
      <trkpt lat="44.85851" lon="3.8811">
        <ele>1079.7</ele>
        <time>2025-04-06T09:01:13Z</time>
      </trkpt>
      <trkpt lat="44.85818" lon="3.88113">
        <ele>1085.95</ele>
        <time>2025-04-06T09:01:37Z</time>
      </trkpt>
      <trkpt lat="44.85789" lon="3.88127">
        <ele>1089.31</ele>
        <time>2025-04-06T09:01:58Z</time>
      </trkpt>
      <trkpt lat="44.85752" lon="3.88141">
        <ele>1093.16</ele>
        <time>2025-04-06T09:02:14Z</time>
      </trkpt>
      <trkpt lat="44.85706" lon="3.88141">
        <ele>1097</ele>
        <time>2025-04-06T09:02:27Z</time>
      </trkpt>
      <trkpt lat="44.85676" lon="3.88124">
        <ele>1101.33</ele>
        <time>2025-04-06T09:02:34Z</time>
      </trkpt>
      <trkpt lat="44.85624" lon="3.88079">
        <ele>1111.42</ele>
        <time>2025-04-06T09:02:48Z</time>
      </trkpt>
      <trkpt lat="44.85571" lon="3.8807">
        <ele>1120.55</ele>
        <time>2025-04-06T09:03:01Z</time>
      </trkpt>
      <trkpt lat="44.85492" lon="3.88072">
        <ele>1138.34</ele>
        <time>2025-04-06T09:03:18Z</time>
      </trkpt>
      <trkpt lat="44.85423" lon="3.88073">
        <ele>1147.95</ele>
        <time>2025-04-06T09:03:34Z</time>
      </trkpt>
      <trkpt lat="44.85366" lon="3.88094">
        <ele>1149.39</ele>
        <time>2025-04-06T09:03:48Z</time>
      </trkpt>
      <trkpt lat="44.8532" lon="3.88105">
        <ele>1148.91</ele>
        <time>2025-04-06T09:04:02Z</time>
      </trkpt>
      <trkpt lat="44.85294" lon="3.88105">
        <ele>1147.47</ele>
        <time>2025-04-06T09:04:17Z</time>
      </trkpt>
      <trkpt lat="44.85261" lon="3.88102">
        <ele>1145.07</ele>
        <time>2025-04-06T09:04:37Z</time>
      </trkpt>
      <trkpt lat="44.85223" lon="3.88088">
        <ele>1142.66</ele>
        <time>2025-04-06T09:05:01Z</time>
      </trkpt>
      <trkpt lat="44.85188" lon="3.88072">
        <ele>1141.22</ele>
        <time>2025-04-06T09:05:24Z</time>
      </trkpt>
      <trkpt lat="44.85151" lon="3.88058">
        <ele>1139.3</ele>
        <time>2025-04-06T09:05:47Z</time>
      </trkpt>
      <trkpt lat="44.8512" lon="3.88042">
        <ele>1137.86</ele>
        <time>2025-04-06T09:06:08Z</time>
      </trkpt>
      <trkpt lat="44.85082" lon="3.88029">
        <ele>1138.82</ele>
        <time>2025-04-06T09:06:32Z</time>
      </trkpt>
      <trkpt lat="44.85039" lon="3.88021">
        <ele>1139.78</ele>
        <time>2025-04-06T09:06:59Z</time>
      </trkpt>
      <trkpt lat="44.85008" lon="3.88012">
        <ele>1139.3</ele>
        <time>2025-04-06T09:07:18Z</time>
      </trkpt>
      <trkpt lat="44.84976" lon="3.87999">
        <ele>1139.78</ele>
        <time>2025-04-06T09:07:40Z</time>
      </trkpt>
      <trkpt lat="44.84942" lon="3.8798">
        <ele>1138.82</ele>
        <time>2025-04-06T09:08:03Z</time>
      </trkpt>
      <trkpt lat="44.8491" lon="3.87973">
        <ele>1137.86</ele>
        <time>2025-04-06T09:08:23Z</time>
      </trkpt>
      <trkpt lat="44.84878" lon="3.87973">
        <ele>1136.9</ele>
        <time>2025-04-06T09:08:43Z</time>
      </trkpt>
      <trkpt lat="44.84841" lon="3.87976">
        <ele>1136.42</ele>
        <time>2025-04-06T09:09:06Z</time>
      </trkpt>
      <trkpt lat="44.84807" lon="3.87979">
        <ele>1134.97</ele>
        <time>2025-04-06T09:09:27Z</time>
      </trkpt>
      <trkpt lat="44.84777" lon="3.87988">
        <ele>1135.94</ele>
        <time>2025-04-06T09:09:45Z</time>
      </trkpt>
      <trkpt lat="44.84753" lon="3.87994">
        <ele>1134.49</ele>
        <time>2025-04-06T09:10:00Z</time>
      </trkpt>
      <trkpt lat="44.84751" lon="3.87994">
        <ele>1134.49</ele>
        <time>2025-04-06T09:10:01Z</time>
      </trkpt>
      <trkpt lat="44.84711" lon="3.87996">
        <ele>1133.05</ele>
        <time>2025-04-06T09:10:24Z</time>
      </trkpt>
      <trkpt lat="44.84684" lon="3.87998">
        <ele>1132.57</ele>
        <time>2025-04-06T09:10:41Z</time>
      </trkpt>
      <trkpt lat="44.84653" lon="3.88001">
        <ele>1131.61</ele>
        <time>2025-04-06T09:11:00Z</time>
      </trkpt>
      <trkpt lat="44.84619" lon="3.87998">
        <ele>1130.17</ele>
        <time>2025-04-06T09:11:21Z</time>
      </trkpt>
      <trkpt lat="44.84581" lon="3.87996">
        <ele>1130.17</ele>
        <time>2025-04-06T09:11:44Z</time>
      </trkpt>
      <trkpt lat="44.84569" lon="3.88024">
        <ele>1129.21</ele>
        <time>2025-04-06T09:11:59Z</time>
      </trkpt>
      <trkpt lat="44.8456" lon="3.88071">
        <ele>1130.17</ele>
        <time>2025-04-06T09:12:21Z</time>
      </trkpt>
      <trkpt lat="44.84551" lon="3.88114">
        <ele>1131.13</ele>
        <time>2025-04-06T09:12:39Z</time>
      </trkpt>
      <trkpt lat="44.84543" lon="3.88172">
        <ele>1130.65</ele>
        <time>2025-04-06T09:12:58Z</time>
      </trkpt>
      <trkpt lat="44.84533" lon="3.88256">
        <ele>1131.13</ele>
        <time>2025-04-06T09:13:13Z</time>
      </trkpt>
      <trkpt lat="44.84545" lon="3.88288">
        <ele>1132.57</ele>
        <time>2025-04-06T09:13:23Z</time>
      </trkpt>
      <trkpt lat="44.84561" lon="3.88291">
        <ele>1133.53</ele>
        <time>2025-04-06T09:13:26Z</time>
      </trkpt>
      <trkpt lat="44.84566" lon="3.88294">
        <ele>1134.01</ele>
        <time>2025-04-06T09:13:27Z</time>
      </trkpt>
      <trkpt lat="44.84571" lon="3.88298">
        <ele>1134.01</ele>
        <time>2025-04-06T09:13:28Z</time>
      </trkpt>
      <trkpt lat="44.84576" lon="3.88303">
        <ele>1134.01</ele>
        <time>2025-04-06T09:13:29Z</time>
      </trkpt>
      <trkpt lat="44.8458" lon="3.8831">
        <ele>1134.01</ele>
        <time>2025-04-06T09:13:30Z</time>
      </trkpt>
      <trkpt lat="44.84585" lon="3.88318">
        <ele>1134.01</ele>
        <time>2025-04-06T09:13:31Z</time>
      </trkpt>
      <trkpt lat="44.8464" lon="3.88444">
        <ele>1135.94</ele>
        <time>2025-04-06T09:13:48Z</time>
      </trkpt>
      <trkpt lat="44.84676" lon="3.88547">
        <ele>1138.82</ele>
        <time>2025-04-06T09:14:04Z</time>
      </trkpt>
      <trkpt lat="44.84695" lon="3.88636">
        <ele>1140.74</ele>
        <time>2025-04-06T09:14:22Z</time>
      </trkpt>
      <trkpt lat="44.8471" lon="3.88703">
        <ele>1140.26</ele>
        <time>2025-04-06T09:14:39Z</time>
      </trkpt>
      <trkpt lat="44.84719" lon="3.88758">
        <ele>1136.42</ele>
        <time>2025-04-06T09:14:58Z</time>
      </trkpt>
      <trkpt lat="44.84726" lon="3.88805">
        <ele>1128.24</ele>
        <time>2025-04-06T09:15:17Z</time>
      </trkpt>
      <trkpt lat="44.84738" lon="3.88834">
        <ele>1124.88</ele>
        <time>2025-04-06T09:15:29Z</time>
      </trkpt>
      <trkpt lat="44.84751" lon="3.88882">
        <ele>1122.48</ele>
        <time>2025-04-06T09:15:48Z</time>
      </trkpt>
      <trkpt lat="44.84756" lon="3.88914">
        <ele>1119.59</ele>
        <time>2025-04-06T09:16:01Z</time>
      </trkpt>
      <trkpt lat="44.84765" lon="3.88949">
        <ele>1116.23</ele>
        <time>2025-04-06T09:16:15Z</time>
      </trkpt>
      <trkpt lat="44.84776" lon="3.88981">
        <ele>1113.34</ele>
        <time>2025-04-06T09:16:31Z</time>
      </trkpt>
      <trkpt lat="44.84797" lon="3.89016">
        <ele>1109.5</ele>
        <time>2025-04-06T09:16:50Z</time>
      </trkpt>
      <trkpt lat="44.84818" lon="3.89043">
        <ele>1106.13</ele>
        <time>2025-04-06T09:17:06Z</time>
      </trkpt>
      <trkpt lat="44.8484" lon="3.89067">
        <ele>1101.81</ele>
        <time>2025-04-06T09:17:21Z</time>
      </trkpt>
      <trkpt lat="44.84871" lon="3.89094">
        <ele>1098.92</ele>
        <time>2025-04-06T09:17:42Z</time>
      </trkpt>
      <trkpt lat="44.84886" lon="3.89124">
        <ele>1097.48</ele>
        <time>2025-04-06T09:17:57Z</time>
      </trkpt>
      <trkpt lat="44.84901" lon="3.89159">
        <ele>1096.04</ele>
        <time>2025-04-06T09:18:14Z</time>
      </trkpt>
      <trkpt lat="44.84916" lon="3.89193">
        <ele>1093.64</ele>
        <time>2025-04-06T09:18:30Z</time>
      </trkpt>
      <trkpt lat="44.84934" lon="3.89229">
        <ele>1091.71</ele>
        <time>2025-04-06T09:18:48Z</time>
      </trkpt>
      <trkpt lat="44.84952" lon="3.8927">
        <ele>1089.31</ele>
        <time>2025-04-06T09:19:08Z</time>
      </trkpt>
      <trkpt lat="44.84971" lon="3.8931">
        <ele>1088.35</ele>
        <time>2025-04-06T09:19:27Z</time>
      </trkpt>
      <trkpt lat="44.84984" lon="3.89354">
        <ele>1086.43</ele>
        <time>2025-04-06T09:19:47Z</time>
      </trkpt>
      <trkpt lat="44.84992" lon="3.894">
        <ele>1085.47</ele>
        <time>2025-04-06T09:20:07Z</time>
      </trkpt>
      <trkpt lat="44.85002" lon="3.89452">
        <ele>1083.54</ele>
        <time>2025-04-06T09:20:30Z</time>
      </trkpt>
      <trkpt lat="44.85013" lon="3.895">
        <ele>1081.14</ele>
        <time>2025-04-06T09:20:51Z</time>
      </trkpt>
      <trkpt lat="44.85023" lon="3.89539">
        <ele>1080.18</ele>
        <time>2025-04-06T09:21:09Z</time>
      </trkpt>
      <trkpt lat="44.85034" lon="3.89575">
        <ele>1079.22</ele>
        <time>2025-04-06T09:21:26Z</time>
      </trkpt>
      <trkpt lat="44.85042" lon="3.89618">
        <ele>1077.78</ele>
        <time>2025-04-06T09:21:46Z</time>
      </trkpt>
      <trkpt lat="44.85044" lon="3.89647">
        <ele>1076.81</ele>
        <time>2025-04-06T09:22:04Z</time>
      </trkpt>
      <trkpt lat="44.85046" lon="3.89647">
        <ele>1075.85</ele>
        <time>2025-04-06T09:22:31Z</time>
      </trkpt>
      <trkpt lat="44.85047" lon="3.89656">
        <ele>1075.37</ele>
        <time>2025-04-06T09:22:50Z</time>
      </trkpt>
      <trkpt lat="44.85047" lon="3.89699">
        <ele>1072.49</ele>
        <time>2025-04-06T09:23:09Z</time>
      </trkpt>
      <trkpt lat="44.85052" lon="3.89733">
        <ele>1071.05</ele>
        <time>2025-04-06T09:23:25Z</time>
      </trkpt>
      <trkpt lat="44.85066" lon="3.89758">
        <ele>1070.57</ele>
        <time>2025-04-06T09:23:41Z</time>
      </trkpt>
      <trkpt lat="44.85074" lon="3.89767">
        <ele>1070.57</ele>
        <time>2025-04-06T09:23:48Z</time>
      </trkpt>
      <trkpt lat="44.85104" lon="3.89773">
        <ele>1070.57</ele>
        <time>2025-04-06T09:24:05Z</time>
      </trkpt>
      <trkpt lat="44.85142" lon="3.89799">
        <ele>1071.05</ele>
        <time>2025-04-06T09:24:29Z</time>
      </trkpt>
      <trkpt lat="44.85172" lon="3.89821">
        <ele>1068.64</ele>
        <time>2025-04-06T09:24:49Z</time>
      </trkpt>
      <trkpt lat="44.85209" lon="3.89841">
        <ele>1065.28</ele>
        <time>2025-04-06T09:25:11Z</time>
      </trkpt>
      <trkpt lat="44.85245" lon="3.89861">
        <ele>1063.36</ele>
        <time>2025-04-06T09:25:35Z</time>
      </trkpt>
      <trkpt lat="44.85288" lon="3.89879">
        <ele>1062.87</ele>
        <time>2025-04-06T09:26:01Z</time>
      </trkpt>
      <trkpt lat="44.85322" lon="3.89891">
        <ele>1061.43</ele>
        <time>2025-04-06T09:26:23Z</time>
      </trkpt>
      <trkpt lat="44.85347" lon="3.89923">
        <ele>1060.47</ele>
        <time>2025-04-06T09:26:42Z</time>
      </trkpt>
      <trkpt lat="44.85355" lon="3.8997">
        <ele>1060.47</ele>
        <time>2025-04-06T09:27:03Z</time>
      </trkpt>
      <trkpt lat="44.85364" lon="3.90012">
        <ele>1061.91</ele>
        <time>2025-04-06T09:27:23Z</time>
      </trkpt>
      <trkpt lat="44.85378" lon="3.90052">
        <ele>1059.99</ele>
        <time>2025-04-06T09:27:40Z</time>
      </trkpt>
      <trkpt lat="44.85376" lon="3.90096">
        <ele>1056.15</ele>
        <time>2025-04-06T09:27:58Z</time>
      </trkpt>
      <trkpt lat="44.85372" lon="3.9014">
        <ele>1051.82</ele>
        <time>2025-04-06T09:28:17Z</time>
      </trkpt>
      <trkpt lat="44.85374" lon="3.90186">
        <ele>1051.34</ele>
        <time>2025-04-06T09:28:37Z</time>
      </trkpt>
      <trkpt lat="44.85371" lon="3.90233">
        <ele>1051.82</ele>
        <time>2025-04-06T09:28:57Z</time>
      </trkpt>
      <trkpt lat="44.85364" lon="3.90278">
        <ele>1050.38</ele>
        <time>2025-04-06T09:29:17Z</time>
      </trkpt>
      <trkpt lat="44.85356" lon="3.90334">
        <ele>1050.38</ele>
        <time>2025-04-06T09:29:41Z</time>
      </trkpt>
      <trkpt lat="44.85356" lon="3.90387">
        <ele>1049.42</ele>
        <time>2025-04-06T09:30:03Z</time>
      </trkpt>
      <trkpt lat="44.85352" lon="3.90426">
        <ele>1045.57</ele>
        <time>2025-04-06T09:30:20Z</time>
      </trkpt>
      <trkpt lat="44.85359" lon="3.90472">
        <ele>1043.17</ele>
        <time>2025-04-06T09:30:40Z</time>
      </trkpt>
      <trkpt lat="44.85359" lon="3.9052">
        <ele>1040.76</ele>
        <time>2025-04-06T09:31:01Z</time>
      </trkpt>
      <trkpt lat="44.85352" lon="3.90555">
        <ele>1037.4</ele>
        <time>2025-04-06T09:31:20Z</time>
      </trkpt>
      <trkpt lat="44.85377" lon="3.90587">
        <ele>1035</ele>
        <time>2025-04-06T09:31:42Z</time>
      </trkpt>
      <trkpt lat="44.85402" lon="3.90614">
        <ele>1032.59</ele>
        <time>2025-04-06T09:32:02Z</time>
      </trkpt>
      <trkpt lat="44.85433" lon="3.90645">
        <ele>1029.23</ele>
        <time>2025-04-06T09:32:24Z</time>
      </trkpt>
      <trkpt lat="44.85461" lon="3.90668">
        <ele>1025.86</ele>
        <time>2025-04-06T09:32:43Z</time>
      </trkpt>
      <trkpt lat="44.85486" lon="3.90688">
        <ele>1022.98</ele>
        <time>2025-04-06T09:33:00Z</time>
      </trkpt>
      <trkpt lat="44.85495" lon="3.90715">
        <ele>1018.17</ele>
        <time>2025-04-06T09:33:16Z</time>
      </trkpt>
      <trkpt lat="44.85493" lon="3.90717">
        <ele>1017.69</ele>
        <time>2025-04-06T09:33:17Z</time>
      </trkpt>
      <trkpt lat="44.85492" lon="3.90719">
        <ele>1017.21</ele>
        <time>2025-04-06T09:33:18Z</time>
      </trkpt>
      <trkpt lat="44.85474" lon="3.90746">
        <ele>1011.44</ele>
        <time>2025-04-06T09:33:35Z</time>
      </trkpt>
      <trkpt lat="44.85475" lon="3.90748">
        <ele>1010.96</ele>
        <time>2025-04-06T09:33:36Z</time>
      </trkpt>
      <trkpt lat="44.8548" lon="3.90756">
        <ele>1010</ele>
        <time>2025-04-06T09:33:42Z</time>
      </trkpt>
      <trkpt lat="44.85481" lon="3.90757">
        <ele>1010</ele>
        <time>2025-04-06T09:33:43Z</time>
      </trkpt>
      <trkpt lat="44.85482" lon="3.90758">
        <ele>1010</ele>
        <time>2025-04-06T09:33:44Z</time>
      </trkpt>
      <trkpt lat="44.85484" lon="3.90759">
        <ele>1009.52</ele>
        <time>2025-04-06T09:33:45Z</time>
      </trkpt>
      <trkpt lat="44.85486" lon="3.9076">
        <ele>1009.52</ele>
        <time>2025-04-06T09:33:46Z</time>
      </trkpt>
      <trkpt lat="44.85487" lon="3.9076">
        <ele>1009.52</ele>
        <time>2025-04-06T09:33:47Z</time>
      </trkpt>
      <trkpt lat="44.85488" lon="3.9076">
        <ele>1009.52</ele>
        <time>2025-04-06T09:33:48Z</time>
      </trkpt>
      <trkpt lat="44.85514" lon="3.90759">
        <ele>1006.64</ele>
        <time>2025-04-06T09:34:06Z</time>
      </trkpt>
      <trkpt lat="44.85543" lon="3.90768">
        <ele>1001.83</ele>
        <time>2025-04-06T09:34:26Z</time>
      </trkpt>
      <trkpt lat="44.8557" lon="3.90786">
        <ele>994.62</ele>
        <time>2025-04-06T09:34:42Z</time>
      </trkpt>
      <trkpt lat="44.85572" lon="3.90787">
        <ele>994.14</ele>
        <time>2025-04-06T09:34:43Z</time>
      </trkpt>
      <trkpt lat="44.85602" lon="3.90805">
        <ele>988.37</ele>
        <time>2025-04-06T09:35:01Z</time>
      </trkpt>
      <trkpt lat="44.85629" lon="3.90821">
        <ele>985.49</ele>
        <time>2025-04-06T09:35:18Z</time>
      </trkpt>
      <trkpt lat="44.85654" lon="3.90846">
        <ele>983.57</ele>
        <time>2025-04-06T09:35:37Z</time>
      </trkpt>
      <trkpt lat="44.85682" lon="3.90874">
        <ele>978.76</ele>
        <time>2025-04-06T09:35:57Z</time>
      </trkpt>
      <trkpt lat="44.85716" lon="3.90891">
        <ele>976.36</ele>
        <time>2025-04-06T09:36:16Z</time>
      </trkpt>
      <trkpt lat="44.85741" lon="3.90906">
        <ele>973.47</ele>
        <time>2025-04-06T09:36:31Z</time>
      </trkpt>
      <trkpt lat="44.85765" lon="3.90927">
        <ele>971.07</ele>
        <time>2025-04-06T09:36:48Z</time>
      </trkpt>
      <trkpt lat="44.85789" lon="3.90948">
        <ele>969.15</ele>
        <time>2025-04-06T09:37:04Z</time>
      </trkpt>
      <trkpt lat="44.85818" lon="3.90965">
        <ele>966.74</ele>
        <time>2025-04-06T09:37:24Z</time>
      </trkpt>
      <trkpt lat="44.85846" lon="3.90982">
        <ele>963.38</ele>
        <time>2025-04-06T09:37:42Z</time>
      </trkpt>
      <trkpt lat="44.85874" lon="3.9102">
        <ele>958.09</ele>
        <time>2025-04-06T09:38:04Z</time>
      </trkpt>
      <trkpt lat="44.85899" lon="3.91055">
        <ele>954.25</ele>
        <time>2025-04-06T09:38:25Z</time>
      </trkpt>
      <trkpt lat="44.85908" lon="3.91084">
        <ele>949.44</ele>
        <time>2025-04-06T09:38:42Z</time>
      </trkpt>
      <trkpt lat="44.85915" lon="3.91119">
        <ele>947.52</ele>
        <time>2025-04-06T09:38:59Z</time>
      </trkpt>
      <trkpt lat="44.85919" lon="3.91165">
        <ele>946.56</ele>
        <time>2025-04-06T09:39:18Z</time>
      </trkpt>
      <trkpt lat="44.85926" lon="3.9121">
        <ele>944.15</ele>
        <time>2025-04-06T09:39:38Z</time>
      </trkpt>
      <trkpt lat="44.85936" lon="3.91251">
        <ele>944.15</ele>
        <time>2025-04-06T09:39:58Z</time>
      </trkpt>
      <trkpt lat="44.85936" lon="3.91255">
        <ele>944.15</ele>
        <time>2025-04-06T09:40:01Z</time>
      </trkpt>
      <trkpt lat="44.85935" lon="3.91257">
        <ele>944.15</ele>
        <time>2025-04-06T09:40:02Z</time>
      </trkpt>
      <trkpt lat="44.85924" lon="3.91298">
        <ele>941.75</ele>
        <time>2025-04-06T09:40:21Z</time>
      </trkpt>
      <trkpt lat="44.85914" lon="3.91331">
        <ele>938.86</ele>
        <time>2025-04-06T09:40:40Z</time>
      </trkpt>
      <trkpt lat="44.85912" lon="3.91334">
        <ele>936.94</ele>
        <time>2025-04-06T09:40:48Z</time>
      </trkpt>
      <trkpt lat="44.85912" lon="3.91336">
        <ele>936.94</ele>
        <time>2025-04-06T09:40:49Z</time>
      </trkpt>
      <trkpt lat="44.85911" lon="3.91338">
        <ele>936.94</ele>
        <time>2025-04-06T09:40:50Z</time>
      </trkpt>
      <trkpt lat="44.8591" lon="3.9134">
        <ele>936.46</ele>
        <time>2025-04-06T09:40:51Z</time>
      </trkpt>
      <trkpt lat="44.85909" lon="3.91341">
        <ele>936.46</ele>
        <time>2025-04-06T09:40:52Z</time>
      </trkpt>
      <trkpt lat="44.85908" lon="3.91342">
        <ele>936.46</ele>
        <time>2025-04-06T09:40:53Z</time>
      </trkpt>
      <trkpt lat="44.85907" lon="3.91343">
        <ele>935.98</ele>
        <time>2025-04-06T09:40:54Z</time>
      </trkpt>
      <trkpt lat="44.85876" lon="3.91356">
        <ele>933.58</ele>
        <time>2025-04-06T09:41:15Z</time>
      </trkpt>
      <trkpt lat="44.85842" lon="3.91374">
        <ele>934.06</ele>
        <time>2025-04-06T09:41:37Z</time>
      </trkpt>
      <trkpt lat="44.85829" lon="3.91408">
        <ele>932.62</ele>
        <time>2025-04-06T09:41:55Z</time>
      </trkpt>
      <trkpt lat="44.85825" lon="3.91454">
        <ele>934.54</ele>
        <time>2025-04-06T09:42:14Z</time>
      </trkpt>
      <trkpt lat="44.85816" lon="3.91497">
        <ele>936.94</ele>
        <time>2025-04-06T09:42:32Z</time>
      </trkpt>
      <trkpt lat="44.85799" lon="3.91547">
        <ele>942.23</ele>
        <time>2025-04-06T09:42:57Z</time>
      </trkpt>
      <trkpt lat="44.85803" lon="3.91551">
        <ele>943.67</ele>
        <time>2025-04-06T09:43:01Z</time>
      </trkpt>
      <trkpt lat="44.85804" lon="3.91551">
        <ele>944.15</ele>
        <time>2025-04-06T09:43:02Z</time>
      </trkpt>
      <trkpt lat="44.85813" lon="3.9155">
        <ele>946.56</ele>
        <time>2025-04-06T09:43:19Z</time>
      </trkpt>
      <trkpt lat="44.8581" lon="3.91541">
        <ele>949.44</ele>
        <time>2025-04-06T09:43:49Z</time>
      </trkpt>
      <trkpt lat="44.85804" lon="3.91562">
        <ele>947.52</ele>
        <time>2025-04-06T09:44:12Z</time>
      </trkpt>
      <trkpt lat="44.85805" lon="3.91565">
        <ele>948</ele>
        <time>2025-04-06T09:44:14Z</time>
      </trkpt>
      <trkpt lat="44.85812" lon="3.91586">
        <ele>950.88</ele>
        <time>2025-04-06T09:44:25Z</time>
      </trkpt>
      <trkpt lat="44.85817" lon="3.91629">
        <ele>954.25</ele>
        <time>2025-04-06T09:44:45Z</time>
      </trkpt>
      <trkpt lat="44.85825" lon="3.91668">
        <ele>950.4</ele>
        <time>2025-04-06T09:45:03Z</time>
      </trkpt>
      <trkpt lat="44.85819" lon="3.91706">
        <ele>945.59</ele>
        <time>2025-04-06T09:45:19Z</time>
      </trkpt>
      <trkpt lat="44.85805" lon="3.91748">
        <ele>944.63</ele>
        <time>2025-04-06T09:45:39Z</time>
      </trkpt>
      <trkpt lat="44.85798" lon="3.91795">
        <ele>942.71</ele>
        <time>2025-04-06T09:45:58Z</time>
      </trkpt>
      <trkpt lat="44.85798" lon="3.91849">
        <ele>944.63</ele>
        <time>2025-04-06T09:46:19Z</time>
      </trkpt>
      <trkpt lat="44.8581" lon="3.91888">
        <ele>946.56</ele>
        <time>2025-04-06T09:46:37Z</time>
      </trkpt>
      <trkpt lat="44.85831" lon="3.91931">
        <ele>948</ele>
        <time>2025-04-06T09:46:59Z</time>
      </trkpt>
      <trkpt lat="44.8586" lon="3.91972">
        <ele>948.96</ele>
        <time>2025-04-06T09:47:23Z</time>
      </trkpt>
      <trkpt lat="44.85888" lon="3.92007">
        <ele>949.44</ele>
        <time>2025-04-06T09:47:44Z</time>
      </trkpt>
      <trkpt lat="44.8591" lon="3.92045">
        <ele>950.88</ele>
        <time>2025-04-06T09:48:04Z</time>
      </trkpt>
      <trkpt lat="44.85922" lon="3.92091">
        <ele>948.96</ele>
        <time>2025-04-06T09:48:24Z</time>
      </trkpt>
      <trkpt lat="44.85934" lon="3.9213">
        <ele>947.52</ele>
        <time>2025-04-06T09:48:41Z</time>
      </trkpt>
      <trkpt lat="44.85953" lon="3.92168">
        <ele>943.19</ele>
        <time>2025-04-06T09:49:01Z</time>
      </trkpt>
      <trkpt lat="44.85971" lon="3.92199">
        <ele>942.23</ele>
        <time>2025-04-06T09:49:18Z</time>
      </trkpt>
      <trkpt lat="44.8599" lon="3.92237">
        <ele>940.79</ele>
        <time>2025-04-06T09:49:37Z</time>
      </trkpt>
      <trkpt lat="44.86008" lon="3.92272">
        <ele>938.38</ele>
        <time>2025-04-06T09:49:56Z</time>
      </trkpt>
      <trkpt lat="44.86022" lon="3.92311">
        <ele>935.02</ele>
        <time>2025-04-06T09:50:16Z</time>
      </trkpt>
      <trkpt lat="44.86037" lon="3.92357">
        <ele>931.65</ele>
        <time>2025-04-06T09:50:38Z</time>
      </trkpt>
      <trkpt lat="44.86062" lon="3.92384">
        <ele>928.77</ele>
        <time>2025-04-06T09:50:57Z</time>
      </trkpt>
      <trkpt lat="44.86088" lon="3.92414">
        <ele>925.41</ele>
        <time>2025-04-06T09:51:18Z</time>
      </trkpt>
      <trkpt lat="44.86091" lon="3.92417">
        <ele>925.41</ele>
        <time>2025-04-06T09:51:20Z</time>
      </trkpt>
      <trkpt lat="44.86092" lon="3.92417">
        <ele>925.41</ele>
        <time>2025-04-06T09:51:21Z</time>
      </trkpt>
      <trkpt lat="44.86094" lon="3.92417">
        <ele>925.41</ele>
        <time>2025-04-06T09:51:22Z</time>
      </trkpt>
      <trkpt lat="44.86095" lon="3.92416">
        <ele>924.93</ele>
        <time>2025-04-06T09:51:23Z</time>
      </trkpt>
      <trkpt lat="44.86096" lon="3.92415">
        <ele>924.93</ele>
        <time>2025-04-06T09:51:24Z</time>
      </trkpt>
      <trkpt lat="44.86095" lon="3.92398">
        <ele>924.45</ele>
        <time>2025-04-06T09:51:36Z</time>
      </trkpt>
      <trkpt lat="44.86094" lon="3.92396">
        <ele>924.45</ele>
        <time>2025-04-06T09:51:37Z</time>
      </trkpt>
      <trkpt lat="44.86088" lon="3.92358">
        <ele>927.33</ele>
        <time>2025-04-06T09:51:58Z</time>
      </trkpt>
      <trkpt lat="44.86081" lon="3.92329">
        <ele>927.33</ele>
        <time>2025-04-06T09:52:16Z</time>
      </trkpt>
      <trkpt lat="44.86074" lon="3.92303">
        <ele>925.41</ele>
        <time>2025-04-06T09:52:33Z</time>
      </trkpt>
      <trkpt lat="44.86072" lon="3.92268">
        <ele>922.04</ele>
        <time>2025-04-06T09:52:49Z</time>
      </trkpt>
      <trkpt lat="44.86072" lon="3.92265">
        <ele>922.04</ele>
        <time>2025-04-06T09:52:50Z</time>
      </trkpt>
      <trkpt lat="44.86079" lon="3.92224">
        <ele>920.6</ele>
        <time>2025-04-06T09:53:07Z</time>
      </trkpt>
      <trkpt lat="44.86079" lon="3.92177">
        <ele>917.72</ele>
        <time>2025-04-06T09:53:26Z</time>
      </trkpt>
      <trkpt lat="44.86076" lon="3.92127">
        <ele>915.79</ele>
        <time>2025-04-06T09:53:48Z</time>
      </trkpt>
      <trkpt lat="44.86073" lon="3.92106">
        <ele>916.27</ele>
        <time>2025-04-06T09:54:00Z</time>
      </trkpt>
      <trkpt lat="44.86072" lon="3.92104">
        <ele>916.27</ele>
        <time>2025-04-06T09:54:01Z</time>
      </trkpt>
      <trkpt lat="44.86072" lon="3.92102">
        <ele>916.27</ele>
        <time>2025-04-06T09:54:02Z</time>
      </trkpt>
      <trkpt lat="44.86059" lon="3.92056">
        <ele>916.27</ele>
        <time>2025-04-06T09:54:20Z</time>
      </trkpt>
      <trkpt lat="44.86054" lon="3.92019">
        <ele>915.31</ele>
        <time>2025-04-06T09:54:37Z</time>
      </trkpt>
      <trkpt lat="44.86043" lon="3.91986">
        <ele>913.87</ele>
        <time>2025-04-06T09:54:54Z</time>
      </trkpt>
      <trkpt lat="44.86039" lon="3.91962">
        <ele>912.43</ele>
        <time>2025-04-06T09:55:05Z</time>
      </trkpt>
      <trkpt lat="44.86039" lon="3.91959">
        <ele>911.95</ele>
        <time>2025-04-06T09:55:06Z</time>
      </trkpt>
      <trkpt lat="44.8604" lon="3.91957">
        <ele>911.95</ele>
        <time>2025-04-06T09:55:07Z</time>
      </trkpt>
      <trkpt lat="44.86042" lon="3.91948">
        <ele>911.95</ele>
        <time>2025-04-06T09:55:11Z</time>
      </trkpt>
      <trkpt lat="44.86043" lon="3.91946">
        <ele>911.95</ele>
        <time>2025-04-06T09:55:12Z</time>
      </trkpt>
      <trkpt lat="44.86044" lon="3.91944">
        <ele>911.95</ele>
        <time>2025-04-06T09:55:13Z</time>
      </trkpt>
      <trkpt lat="44.86067" lon="3.91927">
        <ele>912.43</ele>
        <time>2025-04-06T09:55:29Z</time>
      </trkpt>
      <trkpt lat="44.86077" lon="3.91929">
        <ele>913.39</ele>
        <time>2025-04-06T09:55:35Z</time>
      </trkpt>
      <trkpt lat="44.86089" lon="3.9195">
        <ele>919.16</ele>
        <time>2025-04-06T09:55:49Z</time>
      </trkpt>
      <trkpt lat="44.86106" lon="3.9198">
        <ele>918.2</ele>
        <time>2025-04-06T09:56:04Z</time>
      </trkpt>
      <trkpt lat="44.86114" lon="3.91987">
        <ele>919.64</ele>
        <time>2025-04-06T09:56:24Z</time>
      </trkpt>
      <trkpt lat="44.86117" lon="3.91999">
        <ele>917.72</ele>
        <time>2025-04-06T09:56:45Z</time>
      </trkpt>
      <trkpt lat="44.86126" lon="3.92019">
        <ele>911.47</ele>
        <time>2025-04-06T09:56:59Z</time>
      </trkpt>
      <trkpt lat="44.86127" lon="3.9202">
        <ele>911.47</ele>
        <time>2025-04-06T09:57:00Z</time>
      </trkpt>
      <trkpt lat="44.86128" lon="3.92021">
        <ele>910.99</ele>
        <time>2025-04-06T09:57:01Z</time>
      </trkpt>
      <trkpt lat="44.86143" lon="3.92055">
        <ele>904.26</ele>
        <time>2025-04-06T09:57:19Z</time>
      </trkpt>
      <trkpt lat="44.86164" lon="3.92086">
        <ele>898.97</ele>
        <time>2025-04-06T09:57:39Z</time>
      </trkpt>
      <trkpt lat="44.86174" lon="3.921">
        <ele>895.61</ele>
        <time>2025-04-06T09:57:55Z</time>
      </trkpt>
      <trkpt lat="44.86173" lon="3.92097">
        <ele>897.05</ele>
        <time>2025-04-06T09:58:18Z</time>
      </trkpt>
      <trkpt lat="44.86179" lon="3.92104">
        <ele>896.09</ele>
        <time>2025-04-06T09:58:33Z</time>
      </trkpt>
      <trkpt lat="44.86181" lon="3.92105">
        <ele>896.09</ele>
        <time>2025-04-06T09:58:34Z</time>
      </trkpt>
      <trkpt lat="44.86182" lon="3.92106">
        <ele>895.61</ele>
        <time>2025-04-06T09:58:35Z</time>
      </trkpt>
      <trkpt lat="44.86199" lon="3.92116">
        <ele>891.28</ele>
        <time>2025-04-06T09:58:50Z</time>
      </trkpt>
      <trkpt lat="44.86225" lon="3.9213">
        <ele>884.55</ele>
        <time>2025-04-06T09:59:07Z</time>
      </trkpt>
      <trkpt lat="44.86251" lon="3.92136">
        <ele>879.26</ele>
        <time>2025-04-06T09:59:24Z</time>
      </trkpt>
      <trkpt lat="44.86285" lon="3.92135">
        <ele>871.09</ele>
        <time>2025-04-06T09:59:47Z</time>
      </trkpt>
      <trkpt lat="44.86289" lon="3.92129">
        <ele>865.8</ele>
        <time>2025-04-06T10:00:02Z</time>
      </trkpt>
      <trkpt lat="44.86292" lon="3.92122">
        <ele>866.29</ele>
        <time>2025-04-06T10:00:07Z</time>
      </trkpt>
      <trkpt lat="44.86293" lon="3.9212">
        <ele>866.77</ele>
        <time>2025-04-06T10:00:08Z</time>
      </trkpt>
      <trkpt lat="44.86291" lon="3.92113">
        <ele>865.8</ele>
        <time>2025-04-06T10:00:25Z</time>
      </trkpt>
      <trkpt lat="44.86294" lon="3.92112">
        <ele>867.73</ele>
        <time>2025-04-06T10:00:47Z</time>
      </trkpt>
      <trkpt lat="44.86296" lon="3.92108">
        <ele>869.65</ele>
        <time>2025-04-06T10:01:05Z</time>
      </trkpt>
      <trkpt lat="44.86302" lon="3.92107">
        <ele>871.57</ele>
        <time>2025-04-06T10:01:20Z</time>
      </trkpt>
      <trkpt lat="44.86299" lon="3.92102">
        <ele>873.98</ele>
        <time>2025-04-06T10:01:42Z</time>
      </trkpt>
      <trkpt lat="44.86311" lon="3.92091">
        <ele>871.09</ele>
        <time>2025-04-06T10:02:01Z</time>
      </trkpt>
      <trkpt lat="44.86313" lon="3.92087">
        <ele>869.17</ele>
        <time>2025-04-06T10:02:20Z</time>
      </trkpt>
      <trkpt lat="44.86316" lon="3.92087">
        <ele>868.69</ele>
        <time>2025-04-06T10:02:35Z</time>
      </trkpt>
      <trkpt lat="44.86315" lon="3.92094">
        <ele>869.17</ele>
        <time>2025-04-06T10:02:46Z</time>
      </trkpt>
      <trkpt lat="44.86312" lon="3.92096">
        <ele>869.65</ele>
        <time>2025-04-06T10:03:01Z</time>
      </trkpt>
      <trkpt lat="44.86313" lon="3.92095">
        <ele>870.13</ele>
        <time>2025-04-06T10:03:28Z</time>
      </trkpt>
      <trkpt lat="44.86317" lon="3.92095">
        <ele>867.25</ele>
        <time>2025-04-06T10:03:55Z</time>
      </trkpt>
      <trkpt lat="44.86319" lon="3.92096">
        <ele>868.69</ele>
        <time>2025-04-06T10:04:14Z</time>
      </trkpt>
      <trkpt lat="44.86318" lon="3.92097">
        <ele>870.61</ele>
        <time>2025-04-06T10:04:31Z</time>
      </trkpt>
      <trkpt lat="44.86316" lon="3.92096">
        <ele>871.09</ele>
        <time>2025-04-06T10:04:57Z</time>
      </trkpt>
      <trkpt lat="44.86313" lon="3.92098">
        <ele>871.57</ele>
        <time>2025-04-06T10:05:19Z</time>
      </trkpt>
      <trkpt lat="44.86312" lon="3.92098">
        <ele>873.01</ele>
        <time>2025-04-06T10:05:39Z</time>
      </trkpt>
      <trkpt lat="44.86316" lon="3.92098">
        <ele>874.46</ele>
        <time>2025-04-06T10:06:00Z</time>
      </trkpt>
      <trkpt lat="44.86313" lon="3.92098">
        <ele>873.5</ele>
        <time>2025-04-06T10:06:22Z</time>
      </trkpt>
      <trkpt lat="44.86313" lon="3.92097">
        <ele>873.98</ele>
        <time>2025-04-06T10:06:37Z</time>
      </trkpt>
      <trkpt lat="44.86312" lon="3.92095">
        <ele>874.46</ele>
        <time>2025-04-06T10:07:02Z</time>
      </trkpt>
      <trkpt lat="44.86317" lon="3.92093">
        <ele>875.9</ele>
        <time>2025-04-06T10:07:34Z</time>
      </trkpt>
      <trkpt lat="44.86318" lon="3.92094">
        <ele>874.46</ele>
        <time>2025-04-06T10:07:58Z</time>
      </trkpt>
      <trkpt lat="44.86317" lon="3.92099">
        <ele>876.38</ele>
        <time>2025-04-06T10:08:20Z</time>
      </trkpt>
      <trkpt lat="44.8632" lon="3.92098">
        <ele>878.78</ele>
        <time>2025-04-06T10:08:41Z</time>
      </trkpt>
      <trkpt lat="44.86317" lon="3.92099">
        <ele>880.71</ele>
        <time>2025-04-06T10:08:58Z</time>
      </trkpt>
      <trkpt lat="44.86315" lon="3.921">
        <ele>878.3</ele>
        <time>2025-04-06T10:09:25Z</time>
      </trkpt>
      <trkpt lat="44.86313" lon="3.92095">
        <ele>879.74</ele>
        <time>2025-04-06T10:09:49Z</time>
      </trkpt>
      <trkpt lat="44.86315" lon="3.92097">
        <ele>878.3</ele>
        <time>2025-04-06T10:10:19Z</time>
      </trkpt>
      <trkpt lat="44.86318" lon="3.92096">
        <ele>879.74</ele>
        <time>2025-04-06T10:10:55Z</time>
      </trkpt>
      <trkpt lat="44.86317" lon="3.92093">
        <ele>880.71</ele>
        <time>2025-04-06T10:11:32Z</time>
      </trkpt>
      <trkpt lat="44.86313" lon="3.92101">
        <ele>876.86</ele>
        <time>2025-04-06T10:11:58Z</time>
      </trkpt>
      <trkpt lat="44.86315" lon="3.92099">
        <ele>875.9</ele>
        <time>2025-04-06T10:12:20Z</time>
      </trkpt>
      <trkpt lat="44.86313" lon="3.92101">
        <ele>876.38</ele>
        <time>2025-04-06T10:12:35Z</time>
      </trkpt>
      <trkpt lat="44.86311" lon="3.9211">
        <ele>874.94</ele>
        <time>2025-04-06T10:12:56Z</time>
      </trkpt>
      <trkpt lat="44.86308" lon="3.9211">
        <ele>876.38</ele>
        <time>2025-04-06T10:13:12Z</time>
      </trkpt>
      <trkpt lat="44.86307" lon="3.9211">
        <ele>878.3</ele>
        <time>2025-04-06T10:13:36Z</time>
      </trkpt>
      <trkpt lat="44.86308" lon="3.92106">
        <ele>878.3</ele>
        <time>2025-04-06T10:13:50Z</time>
      </trkpt>
      <trkpt lat="44.86312" lon="3.92098">
        <ele>876.38</ele>
        <time>2025-04-06T10:14:06Z</time>
      </trkpt>
      <trkpt lat="44.86312" lon="3.92102">
        <ele>876.86</ele>
        <time>2025-04-06T10:14:21Z</time>
      </trkpt>
      <trkpt lat="44.86307" lon="3.92109">
        <ele>878.3</ele>
        <time>2025-04-06T10:14:34Z</time>
      </trkpt>
      <trkpt lat="44.86306" lon="3.92104">
        <ele>881.19</ele>
        <time>2025-04-06T10:15:01Z</time>
      </trkpt>
      <trkpt lat="44.86307" lon="3.92106">
        <ele>879.74</ele>
        <time>2025-04-06T10:15:26Z</time>
      </trkpt>
      <trkpt lat="44.8631" lon="3.92106">
        <ele>878.78</ele>
        <time>2025-04-06T10:15:57Z</time>
      </trkpt>
      <trkpt lat="44.86307" lon="3.92108">
        <ele>876.86</ele>
        <time>2025-04-06T10:16:20Z</time>
      </trkpt>
      <trkpt lat="44.86307" lon="3.92106">
        <ele>877.34</ele>
        <time>2025-04-06T10:16:42Z</time>
      </trkpt>
      <trkpt lat="44.86307" lon="3.92107">
        <ele>876.86</ele>
        <time>2025-04-06T10:17:09Z</time>
      </trkpt>
      <trkpt lat="44.86308" lon="3.92112">
        <ele>874.46</ele>
        <time>2025-04-06T10:17:41Z</time>
      </trkpt>
      <trkpt lat="44.86309" lon="3.92108">
        <ele>872.53</ele>
        <time>2025-04-06T10:18:07Z</time>
      </trkpt>
      <trkpt lat="44.86312" lon="3.92103">
        <ele>875.42</ele>
        <time>2025-04-06T10:18:37Z</time>
      </trkpt>
      <trkpt lat="44.8631" lon="3.92107">
        <ele>873.5</ele>
        <time>2025-04-06T10:19:07Z</time>
      </trkpt>
      <trkpt lat="44.86306" lon="3.92109">
        <ele>875.42</ele>
        <time>2025-04-06T10:19:39Z</time>
      </trkpt>
      <trkpt lat="44.86306" lon="3.92105">
        <ele>876.38</ele>
        <time>2025-04-06T10:19:59Z</time>
      </trkpt>
      <trkpt lat="44.86308" lon="3.92105">
        <ele>876.38</ele>
        <time>2025-04-06T10:20:20Z</time>
      </trkpt>
      <trkpt lat="44.86306" lon="3.92105">
        <ele>877.34</ele>
        <time>2025-04-06T10:20:48Z</time>
      </trkpt>
      <trkpt lat="44.86306" lon="3.92098">
        <ele>879.26</ele>
        <time>2025-04-06T10:21:22Z</time>
      </trkpt>
      <trkpt lat="44.86304" lon="3.92104">
        <ele>875.9</ele>
        <time>2025-04-06T10:21:57Z</time>
      </trkpt>
      <trkpt lat="44.86301" lon="3.92104">
        <ele>875.42</ele>
        <time>2025-04-06T10:22:27Z</time>
      </trkpt>
      <trkpt lat="44.86303" lon="3.92107">
        <ele>881.19</ele>
        <time>2025-04-06T10:22:57Z</time>
      </trkpt>
      <trkpt lat="44.86305" lon="3.92107">
        <ele>880.22</ele>
        <time>2025-04-06T10:23:22Z</time>
      </trkpt>
      <trkpt lat="44.86305" lon="3.92106">
        <ele>879.74</ele>
        <time>2025-04-06T10:23:48Z</time>
      </trkpt>
      <trkpt lat="44.8631" lon="3.92105">
        <ele>885.03</ele>
        <time>2025-04-06T10:24:18Z</time>
      </trkpt>
      <trkpt lat="44.86306" lon="3.92107">
        <ele>879.26</ele>
        <time>2025-04-06T10:24:50Z</time>
      </trkpt>
      <trkpt lat="44.86306" lon="3.92108">
        <ele>876.38</ele>
        <time>2025-04-06T10:25:18Z</time>
      </trkpt>
      <trkpt lat="44.86308" lon="3.92103">
        <ele>875.9</ele>
        <time>2025-04-06T10:25:54Z</time>
      </trkpt>
      <trkpt lat="44.86308" lon="3.92106">
        <ele>876.86</ele>
        <time>2025-04-06T10:26:22Z</time>
      </trkpt>
      <trkpt lat="44.86306" lon="3.92104">
        <ele>875.9</ele>
        <time>2025-04-06T10:26:57Z</time>
      </trkpt>
      <trkpt lat="44.86307" lon="3.92105">
        <ele>877.34</ele>
        <time>2025-04-06T10:27:27Z</time>
      </trkpt>
      <trkpt lat="44.86308" lon="3.92097">
        <ele>875.42</ele>
        <time>2025-04-06T10:27:43Z</time>
      </trkpt>
      <trkpt lat="44.86314" lon="3.92095">
        <ele>874.46</ele>
        <time>2025-04-06T10:27:57Z</time>
      </trkpt>
      <trkpt lat="44.8632" lon="3.92093">
        <ele>873.5</ele>
        <time>2025-04-06T10:28:13Z</time>
      </trkpt>
      <trkpt lat="44.86321" lon="3.92095">
        <ele>874.94</ele>
        <time>2025-04-06T10:28:30Z</time>
      </trkpt>
      <trkpt lat="44.86319" lon="3.92098">
        <ele>873.5</ele>
        <time>2025-04-06T10:28:53Z</time>
      </trkpt>
      <trkpt lat="44.86313" lon="3.92098">
        <ele>875.42</ele>
        <time>2025-04-06T10:29:07Z</time>
      </trkpt>
      <trkpt lat="44.86313" lon="3.921">
        <ele>878.3</ele>
        <time>2025-04-06T10:29:30Z</time>
      </trkpt>
      <trkpt lat="44.8631" lon="3.92107">
        <ele>879.26</ele>
        <time>2025-04-06T10:29:43Z</time>
      </trkpt>
      <trkpt lat="44.86307" lon="3.92107">
        <ele>877.34</ele>
        <time>2025-04-06T10:30:03Z</time>
      </trkpt>
      <trkpt lat="44.86305" lon="3.92108">
        <ele>875.9</ele>
        <time>2025-04-06T10:30:27Z</time>
      </trkpt>
      <trkpt lat="44.86306" lon="3.92109">
        <ele>877.34</ele>
        <time>2025-04-06T10:30:43Z</time>
      </trkpt>
      <trkpt lat="44.86305" lon="3.92114">
        <ele>876.86</ele>
        <time>2025-04-06T10:31:06Z</time>
      </trkpt>
      <trkpt lat="44.86306" lon="3.92112">
        <ele>878.3</ele>
        <time>2025-04-06T10:31:39Z</time>
      </trkpt>
      <trkpt lat="44.86305" lon="3.9211">
        <ele>876.86</ele>
        <time>2025-04-06T10:32:10Z</time>
      </trkpt>
      <trkpt lat="44.86307" lon="3.92104">
        <ele>878.78</ele>
        <time>2025-04-06T10:32:36Z</time>
      </trkpt>
      <trkpt lat="44.86299" lon="3.9211">
        <ele>878.3</ele>
        <time>2025-04-06T10:33:03Z</time>
      </trkpt>
      <trkpt lat="44.86298" lon="3.92108">
        <ele>880.71</ele>
        <time>2025-04-06T10:33:41Z</time>
      </trkpt>
      <trkpt lat="44.86299" lon="3.92106">
        <ele>886.47</ele>
        <time>2025-04-06T10:34:09Z</time>
      </trkpt>
      <trkpt lat="44.86298" lon="3.92105">
        <ele>887.91</ele>
        <time>2025-04-06T10:34:46Z</time>
      </trkpt>
      <trkpt lat="44.86297" lon="3.92111">
        <ele>883.11</ele>
        <time>2025-04-06T10:35:23Z</time>
      </trkpt>
      <trkpt lat="44.86297" lon="3.92107">
        <ele>885.03</ele>
        <time>2025-04-06T10:35:56Z</time>
      </trkpt>
      <trkpt lat="44.86297" lon="3.92108">
        <ele>885.99</ele>
        <time>2025-04-06T10:36:29Z</time>
      </trkpt>
      <trkpt lat="44.86299" lon="3.92106">
        <ele>885.03</ele>
        <time>2025-04-06T10:36:57Z</time>
      </trkpt>
      <trkpt lat="44.86299" lon="3.92104">
        <ele>885.51</ele>
        <time>2025-04-06T10:37:26Z</time>
      </trkpt>
      <trkpt lat="44.863" lon="3.92102">
        <ele>888.4</ele>
        <time>2025-04-06T10:37:56Z</time>
      </trkpt>
      <trkpt lat="44.86298" lon="3.92105">
        <ele>884.55</ele>
        <time>2025-04-06T10:38:33Z</time>
      </trkpt>
      <trkpt lat="44.86301" lon="3.92104">
        <ele>884.07</ele>
        <time>2025-04-06T10:39:13Z</time>
      </trkpt>
      <trkpt lat="44.86303" lon="3.9211">
        <ele>881.67</ele>
        <time>2025-04-06T10:39:38Z</time>
      </trkpt>
      <trkpt lat="44.8631" lon="3.92102">
        <ele>880.71</ele>
        <time>2025-04-06T10:39:53Z</time>
      </trkpt>
      <trkpt lat="44.8631" lon="3.92101">
        <ele>880.22</ele>
        <time>2025-04-06T10:40:12Z</time>
      </trkpt>
      <trkpt lat="44.8631" lon="3.92098">
        <ele>880.22</ele>
        <time>2025-04-06T10:40:33Z</time>
      </trkpt>
      <trkpt lat="44.86312" lon="3.92098">
        <ele>880.22</ele>
        <time>2025-04-06T10:40:48Z</time>
      </trkpt>
      <trkpt lat="44.86316" lon="3.92099">
        <ele>881.19</ele>
        <time>2025-04-06T10:41:08Z</time>
      </trkpt>
      <trkpt lat="44.86317" lon="3.92098">
        <ele>880.22</ele>
        <time>2025-04-06T10:41:42Z</time>
      </trkpt>
      <trkpt lat="44.86319" lon="3.92094">
        <ele>879.74</ele>
        <time>2025-04-06T10:42:19Z</time>
      </trkpt>
      <trkpt lat="44.86317" lon="3.92096">
        <ele>880.22</ele>
        <time>2025-04-06T10:42:47Z</time>
      </trkpt>
      <trkpt lat="44.86321" lon="3.92095">
        <ele>882.15</ele>
        <time>2025-04-06T10:43:23Z</time>
      </trkpt>
      <trkpt lat="44.86316" lon="3.92094">
        <ele>877.34</ele>
        <time>2025-04-06T10:43:57Z</time>
      </trkpt>
      <trkpt lat="44.86314" lon="3.92096">
        <ele>877.82</ele>
        <time>2025-04-06T10:44:32Z</time>
      </trkpt>
      <trkpt lat="44.86322" lon="3.92091">
        <ele>882.15</ele>
        <time>2025-04-06T10:45:05Z</time>
      </trkpt>
      <trkpt lat="44.86324" lon="3.92093">
        <ele>884.07</ele>
        <time>2025-04-06T10:45:37Z</time>
      </trkpt>
      <trkpt lat="44.86323" lon="3.92097">
        <ele>886.95</ele>
        <time>2025-04-06T10:46:11Z</time>
      </trkpt>
      <trkpt lat="44.86326" lon="3.92101">
        <ele>891.28</ele>
        <time>2025-04-06T10:46:45Z</time>
      </trkpt>
      <trkpt lat="44.86322" lon="3.92098">
        <ele>887.43</ele>
        <time>2025-04-06T10:47:19Z</time>
      </trkpt>
      <trkpt lat="44.86321" lon="3.921">
        <ele>885.99</ele>
        <time>2025-04-06T10:47:57Z</time>
      </trkpt>
      <trkpt lat="44.86326" lon="3.92097">
        <ele>892.72</ele>
        <time>2025-04-06T10:48:36Z</time>
      </trkpt>
      <trkpt lat="44.86325" lon="3.92095">
        <ele>888.4</ele>
        <time>2025-04-06T10:49:03Z</time>
      </trkpt>
      <trkpt lat="44.86322" lon="3.92104">
        <ele>886.47</ele>
        <time>2025-04-06T10:49:33Z</time>
      </trkpt>
      <trkpt lat="44.86331" lon="3.92104">
        <ele>889.36</ele>
        <time>2025-04-06T10:50:02Z</time>
      </trkpt>
      <trkpt lat="44.86318" lon="3.92102">
        <ele>897.05</ele>
        <time>2025-04-06T10:50:30Z</time>
      </trkpt>
      <trkpt lat="44.86326" lon="3.92099">
        <ele>896.57</ele>
        <time>2025-04-06T10:50:58Z</time>
      </trkpt>
      <trkpt lat="44.86317" lon="3.92099">
        <ele>889.36</ele>
        <time>2025-04-06T10:51:28Z</time>
      </trkpt>
      <trkpt lat="44.86315" lon="3.92095">
        <ele>882.63</ele>
        <time>2025-04-06T10:52:00Z</time>
      </trkpt>
      <trkpt lat="44.86322" lon="3.92097">
        <ele>876.38</ele>
        <time>2025-04-06T10:52:32Z</time>
      </trkpt>
      <trkpt lat="44.86315" lon="3.92092">
        <ele>866.29</ele>
        <time>2025-04-06T10:52:57Z</time>
      </trkpt>
      <trkpt lat="44.86312" lon="3.92103">
        <ele>864.84</ele>
        <time>2025-04-06T10:53:35Z</time>
      </trkpt>
      <trkpt lat="44.86312" lon="3.92105">
        <ele>870.13</ele>
        <time>2025-04-06T10:54:11Z</time>
      </trkpt>
      <trkpt lat="44.86318" lon="3.92098">
        <ele>881.67</ele>
        <time>2025-04-06T10:54:48Z</time>
      </trkpt>
      <trkpt lat="44.86318" lon="3.92098">
        <ele>877.82</ele>
        <time>2025-04-06T10:55:19Z</time>
      </trkpt>
      <trkpt lat="44.86316" lon="3.92098">
        <ele>873.5</ele>
        <time>2025-04-06T10:55:51Z</time>
      </trkpt>
      <trkpt lat="44.86318" lon="3.92098">
        <ele>873.5</ele>
        <time>2025-04-06T10:56:25Z</time>
      </trkpt>
      <trkpt lat="44.86314" lon="3.921">
        <ele>878.3</ele>
        <time>2025-04-06T10:57:02Z</time>
      </trkpt>
      <trkpt lat="44.86315" lon="3.92097">
        <ele>878.3</ele>
        <time>2025-04-06T10:57:34Z</time>
      </trkpt>
      <trkpt lat="44.86315" lon="3.92097">
        <ele>878.78</ele>
        <time>2025-04-06T10:58:03Z</time>
      </trkpt>
      <trkpt lat="44.86318" lon="3.92101">
        <ele>885.03</ele>
        <time>2025-04-06T10:58:29Z</time>
      </trkpt>
      <trkpt lat="44.8632" lon="3.921">
        <ele>884.07</ele>
        <time>2025-04-06T10:59:06Z</time>
      </trkpt>
      <trkpt lat="44.86315" lon="3.92098">
        <ele>888.4</ele>
        <time>2025-04-06T10:59:36Z</time>
      </trkpt>
      <trkpt lat="44.86317" lon="3.92099">
        <ele>887.43</ele>
        <time>2025-04-06T11:00:09Z</time>
      </trkpt>
      <trkpt lat="44.8632" lon="3.92099">
        <ele>886.47</ele>
        <time>2025-04-06T11:00:41Z</time>
      </trkpt>
      <trkpt lat="44.86317" lon="3.92096">
        <ele>884.55</ele>
        <time>2025-04-06T11:01:12Z</time>
      </trkpt>
      <trkpt lat="44.86314" lon="3.92094">
        <ele>883.11</ele>
        <time>2025-04-06T11:01:49Z</time>
      </trkpt>
      <trkpt lat="44.86314" lon="3.92096">
        <ele>882.63</ele>
        <time>2025-04-06T11:02:32Z</time>
      </trkpt>
      <trkpt lat="44.86317" lon="3.92094">
        <ele>882.15</ele>
        <time>2025-04-06T11:03:11Z</time>
      </trkpt>
      <trkpt lat="44.86315" lon="3.92095">
        <ele>884.07</ele>
        <time>2025-04-06T11:03:48Z</time>
      </trkpt>
      <trkpt lat="44.86312" lon="3.92092">
        <ele>883.11</ele>
        <time>2025-04-06T11:04:23Z</time>
      </trkpt>
      <trkpt lat="44.86309" lon="3.921">
        <ele>880.22</ele>
        <time>2025-04-06T11:05:01Z</time>
      </trkpt>
      <trkpt lat="44.86311" lon="3.92092">
        <ele>873.5</ele>
        <time>2025-04-06T11:05:32Z</time>
      </trkpt>
      <trkpt lat="44.86313" lon="3.92088">
        <ele>875.42</ele>
        <time>2025-04-06T11:06:09Z</time>
      </trkpt>
      <trkpt lat="44.8631" lon="3.92094">
        <ele>876.86</ele>
        <time>2025-04-06T11:06:38Z</time>
      </trkpt>
      <trkpt lat="44.86314" lon="3.92097">
        <ele>880.22</ele>
        <time>2025-04-06T11:07:11Z</time>
      </trkpt>
      <trkpt lat="44.86313" lon="3.92095">
        <ele>881.19</ele>
        <time>2025-04-06T11:07:45Z</time>
      </trkpt>
      <trkpt lat="44.86322" lon="3.92094">
        <ele>888.88</ele>
        <time>2025-04-06T11:08:18Z</time>
      </trkpt>
      <trkpt lat="44.86318" lon="3.92093">
        <ele>888.88</ele>
        <time>2025-04-06T11:08:55Z</time>
      </trkpt>
      <trkpt lat="44.86323" lon="3.921">
        <ele>890.8</ele>
        <time>2025-04-06T11:09:31Z</time>
      </trkpt>
      <trkpt lat="44.86326" lon="3.92096">
        <ele>891.28</ele>
        <time>2025-04-06T11:10:07Z</time>
      </trkpt>
      <trkpt lat="44.86317" lon="3.92094">
        <ele>885.99</ele>
        <time>2025-04-06T11:10:47Z</time>
      </trkpt>
      <trkpt lat="44.86319" lon="3.92091">
        <ele>887.91</ele>
        <time>2025-04-06T11:11:27Z</time>
      </trkpt>
      <trkpt lat="44.86316" lon="3.92096">
        <ele>887.43</ele>
        <time>2025-04-06T11:12:06Z</time>
      </trkpt>
      <trkpt lat="44.86316" lon="3.92096">
        <ele>884.55</ele>
        <time>2025-04-06T11:12:45Z</time>
      </trkpt>
      <trkpt lat="44.86316" lon="3.921">
        <ele>877.34</ele>
        <time>2025-04-06T11:13:23Z</time>
      </trkpt>
      <trkpt lat="44.86311" lon="3.92101">
        <ele>878.3</ele>
        <time>2025-04-06T11:13:47Z</time>
      </trkpt>
      <trkpt lat="44.86314" lon="3.92101">
        <ele>879.26</ele>
        <time>2025-04-06T11:14:26Z</time>
      </trkpt>
      <trkpt lat="44.86317" lon="3.92096">
        <ele>885.03</ele>
        <time>2025-04-06T11:15:08Z</time>
      </trkpt>
      <trkpt lat="44.86318" lon="3.92099">
        <ele>886.47</ele>
        <time>2025-04-06T11:15:43Z</time>
      </trkpt>
      <trkpt lat="44.8632" lon="3.921">
        <ele>885.51</ele>
        <time>2025-04-06T11:16:17Z</time>
      </trkpt>
      <trkpt lat="44.86319" lon="3.921">
        <ele>885.03</ele>
        <time>2025-04-06T11:16:50Z</time>
      </trkpt>
      <trkpt lat="44.86317" lon="3.92102">
        <ele>889.84</ele>
        <time>2025-04-06T11:17:23Z</time>
      </trkpt>
      <trkpt lat="44.86315" lon="3.92102">
        <ele>887.43</ele>
        <time>2025-04-06T11:17:56Z</time>
      </trkpt>
      <trkpt lat="44.86312" lon="3.92102">
        <ele>885.03</ele>
        <time>2025-04-06T11:18:32Z</time>
      </trkpt>
      <trkpt lat="44.86318" lon="3.921">
        <ele>886.95</ele>
        <time>2025-04-06T11:19:01Z</time>
      </trkpt>
      <trkpt lat="44.86318" lon="3.92101">
        <ele>885.99</ele>
        <time>2025-04-06T11:19:29Z</time>
      </trkpt>
      <trkpt lat="44.86318" lon="3.92102">
        <ele>886.47</ele>
        <time>2025-04-06T11:20:09Z</time>
      </trkpt>
      <trkpt lat="44.86323" lon="3.921">
        <ele>885.99</ele>
        <time>2025-04-06T11:20:37Z</time>
      </trkpt>
      <trkpt lat="44.86316" lon="3.921">
        <ele>879.74</ele>
        <time>2025-04-06T11:21:10Z</time>
      </trkpt>
      <trkpt lat="44.86317" lon="3.92097">
        <ele>880.22</ele>
        <time>2025-04-06T11:21:40Z</time>
      </trkpt>
      <trkpt lat="44.86319" lon="3.92097">
        <ele>882.63</ele>
        <time>2025-04-06T11:22:14Z</time>
      </trkpt>
      <trkpt lat="44.86317" lon="3.92094">
        <ele>891.76</ele>
        <time>2025-04-06T11:22:39Z</time>
      </trkpt>
      <trkpt lat="44.86319" lon="3.92098">
        <ele>889.84</ele>
        <time>2025-04-06T11:23:16Z</time>
      </trkpt>
      <trkpt lat="44.86318" lon="3.92103">
        <ele>875.9</ele>
        <time>2025-04-06T11:23:55Z</time>
      </trkpt>
      <trkpt lat="44.86318" lon="3.92096">
        <ele>879.74</ele>
        <time>2025-04-06T11:24:30Z</time>
      </trkpt>
      <trkpt lat="44.86314" lon="3.92096">
        <ele>880.22</ele>
        <time>2025-04-06T11:24:58Z</time>
      </trkpt>
      <trkpt lat="44.86316" lon="3.92098">
        <ele>884.07</ele>
        <time>2025-04-06T11:25:27Z</time>
      </trkpt>
      <trkpt lat="44.86315" lon="3.92099">
        <ele>883.59</ele>
        <time>2025-04-06T11:25:52Z</time>
      </trkpt>
      <trkpt lat="44.86313" lon="3.92099">
        <ele>879.74</ele>
        <time>2025-04-06T11:26:26Z</time>
      </trkpt>
      <trkpt lat="44.86314" lon="3.92098">
        <ele>878.3</ele>
        <time>2025-04-06T11:27:05Z</time>
      </trkpt>
      <trkpt lat="44.86314" lon="3.92097">
        <ele>877.82</ele>
        <time>2025-04-06T11:27:43Z</time>
      </trkpt>
      <trkpt lat="44.86313" lon="3.92097">
        <ele>879.26</ele>
        <time>2025-04-06T11:28:11Z</time>
      </trkpt>
      <trkpt lat="44.86313" lon="3.92096">
        <ele>881.19</ele>
        <time>2025-04-06T11:28:42Z</time>
      </trkpt>
      <trkpt lat="44.86317" lon="3.92097">
        <ele>879.74</ele>
        <time>2025-04-06T11:29:13Z</time>
      </trkpt>
      <trkpt lat="44.86314" lon="3.92096">
        <ele>876.38</ele>
        <time>2025-04-06T11:29:46Z</time>
      </trkpt>
      <trkpt lat="44.86317" lon="3.92095">
        <ele>879.26</ele>
        <time>2025-04-06T11:30:24Z</time>
      </trkpt>
      <trkpt lat="44.86316" lon="3.92096">
        <ele>880.22</ele>
        <time>2025-04-06T11:31:05Z</time>
      </trkpt>
      <trkpt lat="44.86317" lon="3.92097">
        <ele>878.3</ele>
        <time>2025-04-06T11:31:37Z</time>
      </trkpt>
      <trkpt lat="44.86318" lon="3.92097">
        <ele>881.67</ele>
        <time>2025-04-06T11:32:12Z</time>
      </trkpt>
      <trkpt lat="44.86315" lon="3.92101">
        <ele>885.51</ele>
        <time>2025-04-06T11:32:42Z</time>
      </trkpt>
      <trkpt lat="44.86317" lon="3.92106">
        <ele>884.55</ele>
        <time>2025-04-06T11:32:58Z</time>
      </trkpt>
      <trkpt lat="44.86315" lon="3.92102">
        <ele>881.67</ele>
        <time>2025-04-06T11:33:21Z</time>
      </trkpt>
      <trkpt lat="44.86311" lon="3.92102">
        <ele>879.74</ele>
        <time>2025-04-06T11:33:53Z</time>
      </trkpt>
      <trkpt lat="44.86314" lon="3.92102">
        <ele>881.19</ele>
        <time>2025-04-06T11:34:12Z</time>
      </trkpt>
      <trkpt lat="44.86313" lon="3.92106">
        <ele>878.3</ele>
        <time>2025-04-06T11:34:36Z</time>
      </trkpt>
      <trkpt lat="44.86311" lon="3.92095">
        <ele>874.46</ele>
        <time>2025-04-06T11:35:02Z</time>
      </trkpt>
      <trkpt lat="44.86308" lon="3.92097">
        <ele>873.5</ele>
        <time>2025-04-06T11:35:29Z</time>
      </trkpt>
      <trkpt lat="44.8631" lon="3.921">
        <ele>874.94</ele>
        <time>2025-04-06T11:35:58Z</time>
      </trkpt>
      <trkpt lat="44.86311" lon="3.921">
        <ele>873.01</ele>
        <time>2025-04-06T11:36:26Z</time>
      </trkpt>
      <trkpt lat="44.86318" lon="3.92098">
        <ele>873.01</ele>
        <time>2025-04-06T11:36:53Z</time>
      </trkpt>
      <trkpt lat="44.86314" lon="3.92097">
        <ele>872.05</ele>
        <time>2025-04-06T11:37:17Z</time>
      </trkpt>
      <trkpt lat="44.86315" lon="3.92099">
        <ele>872.53</ele>
        <time>2025-04-06T11:37:44Z</time>
      </trkpt>
      <trkpt lat="44.86315" lon="3.92104">
        <ele>870.61</ele>
        <time>2025-04-06T11:38:05Z</time>
      </trkpt>
      <trkpt lat="44.86315" lon="3.92105">
        <ele>871.09</ele>
        <time>2025-04-06T11:38:33Z</time>
      </trkpt>
      <trkpt lat="44.86316" lon="3.92109">
        <ele>871.09</ele>
        <time>2025-04-06T11:38:57Z</time>
      </trkpt>
      <trkpt lat="44.86316" lon="3.92113">
        <ele>870.13</ele>
        <time>2025-04-06T11:39:16Z</time>
      </trkpt>
      <trkpt lat="44.86316" lon="3.92111">
        <ele>871.57</ele>
        <time>2025-04-06T11:39:44Z</time>
      </trkpt>
      <trkpt lat="44.86317" lon="3.92112">
        <ele>873.01</ele>
        <time>2025-04-06T11:40:07Z</time>
      </trkpt>
      <trkpt lat="44.86317" lon="3.92112">
        <ele>875.42</ele>
        <time>2025-04-06T11:40:30Z</time>
      </trkpt>
      <trkpt lat="44.86317" lon="3.92108">
        <ele>876.38</ele>
        <time>2025-04-06T11:41:02Z</time>
      </trkpt>
      <trkpt lat="44.86317" lon="3.92112">
        <ele>877.34</ele>
        <time>2025-04-06T11:41:24Z</time>
      </trkpt>
      <trkpt lat="44.86318" lon="3.92117">
        <ele>877.82</ele>
        <time>2025-04-06T11:41:47Z</time>
      </trkpt>
      <trkpt lat="44.86319" lon="3.92115">
        <ele>876.86</ele>
        <time>2025-04-06T11:42:10Z</time>
      </trkpt>
      <trkpt lat="44.86324" lon="3.92119">
        <ele>880.22</ele>
        <time>2025-04-06T11:42:35Z</time>
      </trkpt>
      <trkpt lat="44.86321" lon="3.92117">
        <ele>882.15</ele>
        <time>2025-04-06T11:43:06Z</time>
      </trkpt>
      <trkpt lat="44.86319" lon="3.92112">
        <ele>882.15</ele>
        <time>2025-04-06T11:43:24Z</time>
      </trkpt>
      <trkpt lat="44.8632" lon="3.92113">
        <ele>883.11</ele>
        <time>2025-04-06T11:43:42Z</time>
      </trkpt>
      <trkpt lat="44.86319" lon="3.92114">
        <ele>884.07</ele>
        <time>2025-04-06T11:43:58Z</time>
      </trkpt>
      <trkpt lat="44.86318" lon="3.92111">
        <ele>880.22</ele>
        <time>2025-04-06T11:44:23Z</time>
      </trkpt>
      <trkpt lat="44.8632" lon="3.92111">
        <ele>877.82</ele>
        <time>2025-04-06T11:44:42Z</time>
      </trkpt>
      <trkpt lat="44.8632" lon="3.9211">
        <ele>878.3</ele>
        <time>2025-04-06T11:45:04Z</time>
      </trkpt>
      <trkpt lat="44.86319" lon="3.9211">
        <ele>878.3</ele>
        <time>2025-04-06T11:45:18Z</time>
      </trkpt>
      <trkpt lat="44.86321" lon="3.92103">
        <ele>876.86</ele>
        <time>2025-04-06T11:45:34Z</time>
      </trkpt>
      <trkpt lat="44.86319" lon="3.92103">
        <ele>876.86</ele>
        <time>2025-04-06T11:45:56Z</time>
      </trkpt>
      <trkpt lat="44.86318" lon="3.92103">
        <ele>874.46</ele>
        <time>2025-04-06T11:46:22Z</time>
      </trkpt>
      <trkpt lat="44.86317" lon="3.92108">
        <ele>873.01</ele>
        <time>2025-04-06T11:46:44Z</time>
      </trkpt>
      <trkpt lat="44.86318" lon="3.92105">
        <ele>872.05</ele>
        <time>2025-04-06T11:47:08Z</time>
      </trkpt>
      <trkpt lat="44.86317" lon="3.92106">
        <ele>868.21</ele>
        <time>2025-04-06T11:47:28Z</time>
      </trkpt>
      <trkpt lat="44.86316" lon="3.92103">
        <ele>868.69</ele>
        <time>2025-04-06T11:47:49Z</time>
      </trkpt>
      <trkpt lat="44.86312" lon="3.92103">
        <ele>867.25</ele>
        <time>2025-04-06T11:48:16Z</time>
      </trkpt>
      <trkpt lat="44.86314" lon="3.92103">
        <ele>869.17</ele>
        <time>2025-04-06T11:48:39Z</time>
      </trkpt>
      <trkpt lat="44.86316" lon="3.92104">
        <ele>878.78</ele>
        <time>2025-04-06T11:48:54Z</time>
      </trkpt>
      <trkpt lat="44.86313" lon="3.92111">
        <ele>881.19</ele>
        <time>2025-04-06T11:49:06Z</time>
      </trkpt>
      <trkpt lat="44.86306" lon="3.92121">
        <ele>884.55</ele>
        <time>2025-04-06T11:49:20Z</time>
      </trkpt>
      <trkpt lat="44.86303" lon="3.9212">
        <ele>886.47</ele>
        <time>2025-04-06T11:49:34Z</time>
      </trkpt>
      <trkpt lat="44.86298" lon="3.92097">
        <ele>886.47</ele>
        <time>2025-04-06T11:49:51Z</time>
      </trkpt>
      <trkpt lat="44.86296" lon="3.92076">
        <ele>888.4</ele>
        <time>2025-04-06T11:50:09Z</time>
      </trkpt>
      <trkpt lat="44.86294" lon="3.92075">
        <ele>887.91</ele>
        <time>2025-04-06T11:50:30Z</time>
      </trkpt>
      <trkpt lat="44.86288" lon="3.92062">
        <ele>890.8</ele>
        <time>2025-04-06T11:50:48Z</time>
      </trkpt>
      <trkpt lat="44.86284" lon="3.92057">
        <ele>893.2</ele>
        <time>2025-04-06T11:51:06Z</time>
      </trkpt>
      <trkpt lat="44.86284" lon="3.9205">
        <ele>899.93</ele>
        <time>2025-04-06T11:51:34Z</time>
      </trkpt>
      <trkpt lat="44.86284" lon="3.92049">
        <ele>897.53</ele>
        <time>2025-04-06T11:51:58Z</time>
      </trkpt>
      <trkpt lat="44.86284" lon="3.92048">
        <ele>895.12</ele>
        <time>2025-04-06T11:52:21Z</time>
      </trkpt>
      <trkpt lat="44.86284" lon="3.92062">
        <ele>890.8</ele>
        <time>2025-04-06T11:52:37Z</time>
      </trkpt>
      <trkpt lat="44.86291" lon="3.92063">
        <ele>888.88</ele>
        <time>2025-04-06T11:52:54Z</time>
      </trkpt>
      <trkpt lat="44.86289" lon="3.92063">
        <ele>887.43</ele>
        <time>2025-04-06T11:53:14Z</time>
      </trkpt>
      <trkpt lat="44.86299" lon="3.92071">
        <ele>886.47</ele>
        <time>2025-04-06T11:53:31Z</time>
      </trkpt>
      <trkpt lat="44.86305" lon="3.92085">
        <ele>885.99</ele>
        <time>2025-04-06T11:53:48Z</time>
      </trkpt>
      <trkpt lat="44.86304" lon="3.92101">
        <ele>884.07</ele>
        <time>2025-04-06T11:54:04Z</time>
      </trkpt>
      <trkpt lat="44.86305" lon="3.92106">
        <ele>881.67</ele>
        <time>2025-04-06T11:54:18Z</time>
      </trkpt>
      <trkpt lat="44.86306" lon="3.92108">
        <ele>877.82</ele>
        <time>2025-04-06T11:54:33Z</time>
      </trkpt>
      <trkpt lat="44.86304" lon="3.92104">
        <ele>875.9</ele>
        <time>2025-04-06T11:54:53Z</time>
      </trkpt>
      <trkpt lat="44.86303" lon="3.92105">
        <ele>877.34</ele>
        <time>2025-04-06T11:55:14Z</time>
      </trkpt>
      <trkpt lat="44.86306" lon="3.92107">
        <ele>877.34</ele>
        <time>2025-04-06T11:55:41Z</time>
      </trkpt>
      <trkpt lat="44.86305" lon="3.92112">
        <ele>881.67</ele>
        <time>2025-04-06T11:56:10Z</time>
      </trkpt>
      <trkpt lat="44.86305" lon="3.92111">
        <ele>882.15</ele>
        <time>2025-04-06T11:56:27Z</time>
      </trkpt>
      <trkpt lat="44.86307" lon="3.92108">
        <ele>882.63</ele>
        <time>2025-04-06T11:56:58Z</time>
      </trkpt>
      <trkpt lat="44.86308" lon="3.92109">
        <ele>880.71</ele>
        <time>2025-04-06T11:57:16Z</time>
      </trkpt>
      <trkpt lat="44.86311" lon="3.92112">
        <ele>879.26</ele>
        <time>2025-04-06T11:57:38Z</time>
      </trkpt>
      <trkpt lat="44.86307" lon="3.92118">
        <ele>876.86</ele>
        <time>2025-04-06T11:57:52Z</time>
      </trkpt>
      <trkpt lat="44.86301" lon="3.92127">
        <ele>877.82</ele>
        <time>2025-04-06T11:58:06Z</time>
      </trkpt>
      <trkpt lat="44.86298" lon="3.92134">
        <ele>877.82</ele>
        <time>2025-04-06T11:58:23Z</time>
      </trkpt>
      <trkpt lat="44.86302" lon="3.92136">
        <ele>879.26</ele>
        <time>2025-04-06T11:58:42Z</time>
      </trkpt>
      <trkpt lat="44.8631" lon="3.92137">
        <ele>876.86</ele>
        <time>2025-04-06T11:58:58Z</time>
      </trkpt>
      <trkpt lat="44.86319" lon="3.92137">
        <ele>876.38</ele>
        <time>2025-04-06T11:59:13Z</time>
      </trkpt>
      <trkpt lat="44.86332" lon="3.92138">
        <ele>874.46</ele>
        <time>2025-04-06T11:59:30Z</time>
      </trkpt>
      <trkpt lat="44.86346" lon="3.92143">
        <ele>871.57</ele>
        <time>2025-04-06T11:59:45Z</time>
      </trkpt>
      <trkpt lat="44.86357" lon="3.92145">
        <ele>867.25</ele>
        <time>2025-04-06T12:00:00Z</time>
      </trkpt>
      <trkpt lat="44.86366" lon="3.92149">
        <ele>861.48</ele>
        <time>2025-04-06T12:00:14Z</time>
      </trkpt>
      <trkpt lat="44.86377" lon="3.92161">
        <ele>856.67</ele>
        <time>2025-04-06T12:00:29Z</time>
      </trkpt>
      <trkpt lat="44.86389" lon="3.92172">
        <ele>854.27</ele>
        <time>2025-04-06T12:00:47Z</time>
      </trkpt>
      <trkpt lat="44.86401" lon="3.92183">
        <ele>852.83</ele>
        <time>2025-04-06T12:01:05Z</time>
      </trkpt>
      <trkpt lat="44.86417" lon="3.92197">
        <ele>851.87</ele>
        <time>2025-04-06T12:01:24Z</time>
      </trkpt>
      <trkpt lat="44.86426" lon="3.92202">
        <ele>851.87</ele>
        <time>2025-04-06T12:01:34Z</time>
      </trkpt>
      <trkpt lat="44.86441" lon="3.92208">
        <ele>850.42</ele>
        <time>2025-04-06T12:01:52Z</time>
      </trkpt>
      <trkpt lat="44.86448" lon="3.92209">
        <ele>849.46</ele>
        <time>2025-04-06T12:02:10Z</time>
      </trkpt>
      <trkpt lat="44.86459" lon="3.92213">
        <ele>849.46</ele>
        <time>2025-04-06T12:02:24Z</time>
      </trkpt>
      <trkpt lat="44.86473" lon="3.92218">
        <ele>846.58</ele>
        <time>2025-04-06T12:02:39Z</time>
      </trkpt>
      <trkpt lat="44.8649" lon="3.92228">
        <ele>842.73</ele>
        <time>2025-04-06T12:02:57Z</time>
      </trkpt>
      <trkpt lat="44.86497" lon="3.92231">
        <ele>840.81</ele>
        <time>2025-04-06T12:03:07Z</time>
      </trkpt>
      <trkpt lat="44.8651" lon="3.92244">
        <ele>838.89</ele>
        <time>2025-04-06T12:03:23Z</time>
      </trkpt>
      <trkpt lat="44.86525" lon="3.92262">
        <ele>839.37</ele>
        <time>2025-04-06T12:03:41Z</time>
      </trkpt>
      <trkpt lat="44.86534" lon="3.92262">
        <ele>839.37</ele>
        <time>2025-04-06T12:03:53Z</time>
      </trkpt>
      <trkpt lat="44.86536" lon="3.92263">
        <ele>840.33</ele>
        <time>2025-04-06T12:04:11Z</time>
      </trkpt>
      <trkpt lat="44.86548" lon="3.92268">
        <ele>837.93</ele>
        <time>2025-04-06T12:04:26Z</time>
      </trkpt>
      <trkpt lat="44.86549" lon="3.92268">
        <ele>838.41</ele>
        <time>2025-04-06T12:04:27Z</time>
      </trkpt>
      <trkpt lat="44.86562" lon="3.92272">
        <ele>842.25</ele>
        <time>2025-04-06T12:04:44Z</time>
      </trkpt>
      <trkpt lat="44.86578" lon="3.92282">
        <ele>844.66</ele>
        <time>2025-04-06T12:05:00Z</time>
      </trkpt>
      <trkpt lat="44.86589" lon="3.92297">
        <ele>847.06</ele>
        <time>2025-04-06T12:05:17Z</time>
      </trkpt>
      <trkpt lat="44.86599" lon="3.92309">
        <ele>848.02</ele>
        <time>2025-04-06T12:05:32Z</time>
      </trkpt>
      <trkpt lat="44.86609" lon="3.92315">
        <ele>853.31</ele>
        <time>2025-04-06T12:05:46Z</time>
      </trkpt>
      <trkpt lat="44.86615" lon="3.9232">
        <ele>856.67</ele>
        <time>2025-04-06T12:06:02Z</time>
      </trkpt>
      <trkpt lat="44.86617" lon="3.92319">
        <ele>861</ele>
        <time>2025-04-06T12:06:22Z</time>
      </trkpt>
      <trkpt lat="44.86616" lon="3.92323">
        <ele>860.04</ele>
        <time>2025-04-06T12:06:48Z</time>
      </trkpt>
      <trkpt lat="44.86617" lon="3.92323">
        <ele>857.15</ele>
        <time>2025-04-06T12:07:18Z</time>
      </trkpt>
      <trkpt lat="44.86618" lon="3.92322">
        <ele>858.11</ele>
        <time>2025-04-06T12:07:53Z</time>
      </trkpt>
      <trkpt lat="44.8662" lon="3.92325">
        <ele>854.27</ele>
        <time>2025-04-06T12:08:18Z</time>
      </trkpt>
      <trkpt lat="44.86624" lon="3.92329">
        <ele>854.27</ele>
        <time>2025-04-06T12:08:39Z</time>
      </trkpt>
      <trkpt lat="44.86631" lon="3.92338">
        <ele>854.27</ele>
        <time>2025-04-06T12:08:53Z</time>
      </trkpt>
      <trkpt lat="44.86637" lon="3.92345">
        <ele>855.71</ele>
        <time>2025-04-06T12:09:12Z</time>
      </trkpt>
      <trkpt lat="44.86637" lon="3.92347">
        <ele>857.15</ele>
        <time>2025-04-06T12:09:39Z</time>
      </trkpt>
      <trkpt lat="44.8664" lon="3.92348">
        <ele>859.08</ele>
        <time>2025-04-06T12:10:01Z</time>
      </trkpt>
      <trkpt lat="44.86647" lon="3.92349">
        <ele>860.04</ele>
        <time>2025-04-06T12:10:28Z</time>
      </trkpt>
      <trkpt lat="44.86627" lon="3.92352">
        <ele>862.92</ele>
        <time>2025-04-06T12:10:47Z</time>
      </trkpt>
      <trkpt lat="44.86625" lon="3.92351">
        <ele>864.36</ele>
        <time>2025-04-06T12:11:03Z</time>
      </trkpt>
      <trkpt lat="44.86626" lon="3.92354">
        <ele>864.36</ele>
        <time>2025-04-06T12:11:23Z</time>
      </trkpt>
      <trkpt lat="44.86626" lon="3.92358">
        <ele>868.21</ele>
        <time>2025-04-06T12:11:42Z</time>
      </trkpt>
      <trkpt lat="44.86624" lon="3.92361">
        <ele>878.78</ele>
        <time>2025-04-06T12:11:57Z</time>
      </trkpt>
      <trkpt lat="44.86609" lon="3.92364">
        <ele>877.82</ele>
        <time>2025-04-06T12:12:13Z</time>
      </trkpt>
      <trkpt lat="44.86605" lon="3.92359">
        <ele>877.34</ele>
        <time>2025-04-06T12:12:27Z</time>
      </trkpt>
      <trkpt lat="44.86605" lon="3.92359">
        <ele>874.46</ele>
        <time>2025-04-06T12:12:34Z</time>
      </trkpt>
      <trkpt lat="44.86316" lon="3.92127">
        <ele>921.56</ele>
        <time>2025-04-06T13:05:17Z</time>
      </trkpt>
      <trkpt lat="44.86317" lon="3.92103">
        <ele>898.97</ele>
        <time>2025-04-06T13:05:37Z</time>
      </trkpt>
      <trkpt lat="44.86318" lon="3.921">
        <ele>885.99</ele>
        <time>2025-04-06T13:06:04Z</time>
      </trkpt>
      <trkpt lat="44.86316" lon="3.92098">
        <ele>880.71</ele>
        <time>2025-04-06T13:06:21Z</time>
      </trkpt>
      <trkpt lat="44.86318" lon="3.92098">
        <ele>878.3</ele>
        <time>2025-04-06T13:06:45Z</time>
      </trkpt>
      <trkpt lat="44.86317" lon="3.92107">
        <ele>879.26</ele>
        <time>2025-04-06T13:07:10Z</time>
      </trkpt>
      <trkpt lat="44.86318" lon="3.9211">
        <ele>877.34</ele>
        <time>2025-04-06T13:07:34Z</time>
      </trkpt>
      <trkpt lat="44.86317" lon="3.92111">
        <ele>877.34</ele>
        <time>2025-04-06T13:07:35Z</time>
      </trkpt>
      <trkpt lat="44.86311" lon="3.92117">
        <ele>874.94</ele>
        <time>2025-04-06T13:07:45Z</time>
      </trkpt>
      <trkpt lat="44.86298" lon="3.92127">
        <ele>873.98</ele>
        <time>2025-04-06T13:08:02Z</time>
      </trkpt>
      <trkpt lat="44.86298" lon="3.92137">
        <ele>873.5</ele>
        <time>2025-04-06T13:08:17Z</time>
      </trkpt>
      <trkpt lat="44.86308" lon="3.92137">
        <ele>874.46</ele>
        <time>2025-04-06T13:08:33Z</time>
      </trkpt>
      <trkpt lat="44.86322" lon="3.92137">
        <ele>874.46</ele>
        <time>2025-04-06T13:08:50Z</time>
      </trkpt>
      <trkpt lat="44.86333" lon="3.92136">
        <ele>870.13</ele>
        <time>2025-04-06T13:09:07Z</time>
      </trkpt>
      <trkpt lat="44.86343" lon="3.92141">
        <ele>866.29</ele>
        <time>2025-04-06T13:09:25Z</time>
      </trkpt>
      <trkpt lat="44.86354" lon="3.92148">
        <ele>866.29</ele>
        <time>2025-04-06T13:09:41Z</time>
      </trkpt>
      <trkpt lat="44.86363" lon="3.92144">
        <ele>861.96</ele>
        <time>2025-04-06T13:09:54Z</time>
      </trkpt>
      <trkpt lat="44.86376" lon="3.92162">
        <ele>856.67</ele>
        <time>2025-04-06T13:10:10Z</time>
      </trkpt>
      <trkpt lat="44.86389" lon="3.92173">
        <ele>852.83</ele>
        <time>2025-04-06T13:10:26Z</time>
      </trkpt>
      <trkpt lat="44.86412" lon="3.9219">
        <ele>850.9</ele>
        <time>2025-04-06T13:10:46Z</time>
      </trkpt>
      <trkpt lat="44.86431" lon="3.922">
        <ele>848.5</ele>
        <time>2025-04-06T13:11:03Z</time>
      </trkpt>
      <trkpt lat="44.86439" lon="3.92204">
        <ele>847.54</ele>
        <time>2025-04-06T13:11:12Z</time>
      </trkpt>
      <trkpt lat="44.86459" lon="3.92209">
        <ele>844.18</ele>
        <time>2025-04-06T13:11:30Z</time>
      </trkpt>
      <trkpt lat="44.86481" lon="3.92219">
        <ele>840.33</ele>
        <time>2025-04-06T13:11:47Z</time>
      </trkpt>
      <trkpt lat="44.86498" lon="3.92232">
        <ele>838.41</ele>
        <time>2025-04-06T13:12:05Z</time>
      </trkpt>
      <trkpt lat="44.86514" lon="3.92253">
        <ele>836</ele>
        <time>2025-04-06T13:12:21Z</time>
      </trkpt>
      <trkpt lat="44.86517" lon="3.92257">
        <ele>835.52</ele>
        <time>2025-04-06T13:12:24Z</time>
      </trkpt>
      <trkpt lat="44.8652" lon="3.92265">
        <ele>834.56</ele>
        <time>2025-04-06T13:12:28Z</time>
      </trkpt>
      <trkpt lat="44.86506" lon="3.92284">
        <ele>834.56</ele>
        <time>2025-04-06T13:12:45Z</time>
      </trkpt>
      <trkpt lat="44.86492" lon="3.9229">
        <ele>831.68</ele>
        <time>2025-04-06T13:12:59Z</time>
      </trkpt>
      <trkpt lat="44.8649" lon="3.92289">
        <ele>827.83</ele>
        <time>2025-04-06T13:13:21Z</time>
      </trkpt>
      <trkpt lat="44.86489" lon="3.92293">
        <ele>829.76</ele>
        <time>2025-04-06T13:13:44Z</time>
      </trkpt>
      <trkpt lat="44.86487" lon="3.92292">
        <ele>832.16</ele>
        <time>2025-04-06T13:14:06Z</time>
      </trkpt>
      <trkpt lat="44.86489" lon="3.92295">
        <ele>833.6</ele>
        <time>2025-04-06T13:14:22Z</time>
      </trkpt>
      <trkpt lat="44.86502" lon="3.92278">
        <ele>834.56</ele>
        <time>2025-04-06T13:14:42Z</time>
      </trkpt>
      <trkpt lat="44.86505" lon="3.92276">
        <ele>835.04</ele>
        <time>2025-04-06T13:14:44Z</time>
      </trkpt>
      <trkpt lat="44.86533" lon="3.92261">
        <ele>839.85</ele>
        <time>2025-04-06T13:15:06Z</time>
      </trkpt>
      <trkpt lat="44.86548" lon="3.92271">
        <ele>842.25</ele>
        <time>2025-04-06T13:15:22Z</time>
      </trkpt>
      <trkpt lat="44.86537" lon="3.92268">
        <ele>847.54</ele>
        <time>2025-04-06T13:15:42Z</time>
      </trkpt>
      <trkpt lat="44.86537" lon="3.9226">
        <ele>848.02</ele>
        <time>2025-04-06T13:15:57Z</time>
      </trkpt>
      <trkpt lat="44.86537" lon="3.9226">
        <ele>846.58</ele>
        <time>2025-04-06T13:16:17Z</time>
      </trkpt>
      <trkpt lat="44.86539" lon="3.92262">
        <ele>844.66</ele>
        <time>2025-04-06T13:16:40Z</time>
      </trkpt>
      <trkpt lat="44.86538" lon="3.92263">
        <ele>843.21</ele>
        <time>2025-04-06T13:16:56Z</time>
      </trkpt>
      <trkpt lat="44.86538" lon="3.92255">
        <ele>844.18</ele>
        <time>2025-04-06T13:17:02Z</time>
      </trkpt>
      <trkpt lat="44.86552" lon="3.92224">
        <ele>841.29</ele>
        <time>2025-04-06T13:17:20Z</time>
      </trkpt>
      <trkpt lat="44.86558" lon="3.92212">
        <ele>838.89</ele>
        <time>2025-04-06T13:17:29Z</time>
      </trkpt>
      <trkpt lat="44.86576" lon="3.92203">
        <ele>834.08</ele>
        <time>2025-04-06T13:17:40Z</time>
      </trkpt>
      <trkpt lat="44.86595" lon="3.92212">
        <ele>827.35</ele>
        <time>2025-04-06T13:17:58Z</time>
      </trkpt>
      <trkpt lat="44.866" lon="3.9221">
        <ele>826.39</ele>
        <time>2025-04-06T13:18:13Z</time>
      </trkpt>
      <trkpt lat="44.86599" lon="3.92209">
        <ele>825.91</ele>
        <time>2025-04-06T13:18:15Z</time>
      </trkpt>
      <trkpt lat="44.8659" lon="3.92197">
        <ele>824.95</ele>
        <time>2025-04-06T13:18:24Z</time>
      </trkpt>
      <trkpt lat="44.86583" lon="3.92184">
        <ele>822.06</ele>
        <time>2025-04-06T13:18:33Z</time>
      </trkpt>
      <trkpt lat="44.86566" lon="3.92162">
        <ele>820.62</ele>
        <time>2025-04-06T13:18:52Z</time>
      </trkpt>
      <trkpt lat="44.86567" lon="3.92141">
        <ele>820.14</ele>
        <time>2025-04-06T13:19:04Z</time>
      </trkpt>
      <trkpt lat="44.86559" lon="3.92128">
        <ele>820.62</ele>
        <time>2025-04-06T13:19:11Z</time>
      </trkpt>
      <trkpt lat="44.86568" lon="3.92114">
        <ele>822.06</ele>
        <time>2025-04-06T13:19:26Z</time>
      </trkpt>
      <trkpt lat="44.86591" lon="3.92128">
        <ele>821.58</ele>
        <time>2025-04-06T13:19:45Z</time>
      </trkpt>
      <trkpt lat="44.86615" lon="3.92109">
        <ele>825.43</ele>
        <time>2025-04-06T13:20:03Z</time>
      </trkpt>
      <trkpt lat="44.86638" lon="3.92082">
        <ele>823.99</ele>
        <time>2025-04-06T13:20:19Z</time>
      </trkpt>
      <trkpt lat="44.86641" lon="3.92071">
        <ele>825.43</ele>
        <time>2025-04-06T13:20:26Z</time>
      </trkpt>
      <trkpt lat="44.86645" lon="3.92065">
        <ele>826.87</ele>
        <time>2025-04-06T13:20:30Z</time>
      </trkpt>
      <trkpt lat="44.86659" lon="3.92041">
        <ele>825.43</ele>
        <time>2025-04-06T13:20:46Z</time>
      </trkpt>
      <trkpt lat="44.86676" lon="3.9201">
        <ele>823.51</ele>
        <time>2025-04-06T13:21:05Z</time>
      </trkpt>
      <trkpt lat="44.86685" lon="3.91974">
        <ele>825.43</ele>
        <time>2025-04-06T13:21:23Z</time>
      </trkpt>
      <trkpt lat="44.8669" lon="3.91943">
        <ele>830.72</ele>
        <time>2025-04-06T13:21:42Z</time>
      </trkpt>
      <trkpt lat="44.86694" lon="3.9191">
        <ele>831.68</ele>
        <time>2025-04-06T13:21:58Z</time>
      </trkpt>
      <trkpt lat="44.86703" lon="3.91881">
        <ele>836.48</ele>
        <time>2025-04-06T13:22:16Z</time>
      </trkpt>
      <trkpt lat="44.86715" lon="3.91848">
        <ele>842.73</ele>
        <time>2025-04-06T13:22:34Z</time>
      </trkpt>
      <trkpt lat="44.8673" lon="3.91822">
        <ele>848.02</ele>
        <time>2025-04-06T13:22:52Z</time>
      </trkpt>
      <trkpt lat="44.86746" lon="3.9181">
        <ele>851.87</ele>
        <time>2025-04-06T13:23:08Z</time>
      </trkpt>
      <trkpt lat="44.86752" lon="3.91805">
        <ele>852.35</ele>
        <time>2025-04-06T13:23:12Z</time>
      </trkpt>
      <trkpt lat="44.86775" lon="3.91774">
        <ele>856.67</ele>
        <time>2025-04-06T13:23:33Z</time>
      </trkpt>
      <trkpt lat="44.86798" lon="3.91766">
        <ele>861</ele>
        <time>2025-04-06T13:23:50Z</time>
      </trkpt>
      <trkpt lat="44.86821" lon="3.91772">
        <ele>867.73</ele>
        <time>2025-04-06T13:24:07Z</time>
      </trkpt>
      <trkpt lat="44.86826" lon="3.91772">
        <ele>865.32</ele>
        <time>2025-04-06T13:24:32Z</time>
      </trkpt>
      <trkpt lat="44.86839" lon="3.91778">
        <ele>861</ele>
        <time>2025-04-06T13:24:50Z</time>
      </trkpt>
      <trkpt lat="44.86862" lon="3.91758">
        <ele>859.08</ele>
        <time>2025-04-06T13:25:10Z</time>
      </trkpt>
      <trkpt lat="44.8688" lon="3.9174">
        <ele>860.52</ele>
        <time>2025-04-06T13:25:30Z</time>
      </trkpt>
      <trkpt lat="44.86898" lon="3.9172">
        <ele>862.92</ele>
        <time>2025-04-06T13:25:48Z</time>
      </trkpt>
      <trkpt lat="44.86922" lon="3.91711">
        <ele>866.77</ele>
        <time>2025-04-06T13:26:06Z</time>
      </trkpt>
      <trkpt lat="44.86944" lon="3.91715">
        <ele>875.9</ele>
        <time>2025-04-06T13:26:23Z</time>
      </trkpt>
      <trkpt lat="44.86969" lon="3.91718">
        <ele>880.22</ele>
        <time>2025-04-06T13:26:42Z</time>
      </trkpt>
      <trkpt lat="44.86983" lon="3.91712">
        <ele>884.55</ele>
        <time>2025-04-06T13:26:56Z</time>
      </trkpt>
      <trkpt lat="44.87003" lon="3.91704">
        <ele>890.32</ele>
        <time>2025-04-06T13:27:13Z</time>
      </trkpt>
      <trkpt lat="44.8703" lon="3.91696">
        <ele>892.24</ele>
        <time>2025-04-06T13:27:31Z</time>
      </trkpt>
      <trkpt lat="44.87051" lon="3.91684">
        <ele>893.68</ele>
        <time>2025-04-06T13:27:48Z</time>
      </trkpt>
      <trkpt lat="44.87053" lon="3.91677">
        <ele>888.88</ele>
        <time>2025-04-06T13:28:02Z</time>
      </trkpt>
      <trkpt lat="44.8705" lon="3.91672">
        <ele>889.84</ele>
        <time>2025-04-06T13:28:13Z</time>
      </trkpt>
      <trkpt lat="44.87057" lon="3.91649">
        <ele>890.32</ele>
        <time>2025-04-06T13:28:31Z</time>
      </trkpt>
      <trkpt lat="44.87063" lon="3.91626">
        <ele>891.76</ele>
        <time>2025-04-06T13:28:46Z</time>
      </trkpt>
      <trkpt lat="44.87069" lon="3.916">
        <ele>897.05</ele>
        <time>2025-04-06T13:29:04Z</time>
      </trkpt>
      <trkpt lat="44.87078" lon="3.91578">
        <ele>900.89</ele>
        <time>2025-04-06T13:29:20Z</time>
      </trkpt>
      <trkpt lat="44.87093" lon="3.9155">
        <ele>899.93</ele>
        <time>2025-04-06T13:29:36Z</time>
      </trkpt>
      <trkpt lat="44.87109" lon="3.91537">
        <ele>898.97</ele>
        <time>2025-04-06T13:29:54Z</time>
      </trkpt>
      <trkpt lat="44.87124" lon="3.91525">
        <ele>897.05</ele>
        <time>2025-04-06T13:30:09Z</time>
      </trkpt>
      <trkpt lat="44.87144" lon="3.915">
        <ele>900.41</ele>
        <time>2025-04-06T13:30:27Z</time>
      </trkpt>
      <trkpt lat="44.8716" lon="3.91481">
        <ele>903.78</ele>
        <time>2025-04-06T13:30:45Z</time>
      </trkpt>
      <trkpt lat="44.87178" lon="3.91457">
        <ele>903.3</ele>
        <time>2025-04-06T13:31:02Z</time>
      </trkpt>
      <trkpt lat="44.87192" lon="3.91439">
        <ele>904.74</ele>
        <time>2025-04-06T13:31:21Z</time>
      </trkpt>
      <trkpt lat="44.87205" lon="3.91415">
        <ele>907.62</ele>
        <time>2025-04-06T13:31:40Z</time>
      </trkpt>
      <trkpt lat="44.87216" lon="3.91383">
        <ele>910.99</ele>
        <time>2025-04-06T13:32:01Z</time>
      </trkpt>
      <trkpt lat="44.87226" lon="3.91357">
        <ele>920.6</ele>
        <time>2025-04-06T13:32:18Z</time>
      </trkpt>
      <trkpt lat="44.87231" lon="3.91332">
        <ele>926.37</ele>
        <time>2025-04-06T13:32:33Z</time>
      </trkpt>
      <trkpt lat="44.87227" lon="3.91306">
        <ele>929.73</ele>
        <time>2025-04-06T13:32:49Z</time>
      </trkpt>
      <trkpt lat="44.87222" lon="3.91287">
        <ele>930.69</ele>
        <time>2025-04-06T13:33:06Z</time>
      </trkpt>
      <trkpt lat="44.87222" lon="3.91257">
        <ele>936.46</ele>
        <time>2025-04-06T13:33:26Z</time>
      </trkpt>
      <trkpt lat="44.87222" lon="3.91243">
        <ele>939.83</ele>
        <time>2025-04-06T13:33:59Z</time>
      </trkpt>
      <trkpt lat="44.87224" lon="3.91232">
        <ele>943.67</ele>
        <time>2025-04-06T13:34:16Z</time>
      </trkpt>
      <trkpt lat="44.87232" lon="3.91226">
        <ele>946.07</ele>
        <time>2025-04-06T13:34:32Z</time>
      </trkpt>
      <trkpt lat="44.87232" lon="3.91226">
        <ele>945.11</ele>
        <time>2025-04-06T13:34:46Z</time>
      </trkpt>
      <trkpt lat="44.87234" lon="3.9122">
        <ele>944.63</ele>
        <time>2025-04-06T13:35:05Z</time>
      </trkpt>
      <trkpt lat="44.87235" lon="3.91214">
        <ele>945.11</ele>
        <time>2025-04-06T13:35:20Z</time>
      </trkpt>
      <trkpt lat="44.87241" lon="3.9121">
        <ele>945.59</ele>
        <time>2025-04-06T13:35:41Z</time>
      </trkpt>
      <trkpt lat="44.87243" lon="3.91198">
        <ele>943.67</ele>
        <time>2025-04-06T13:36:02Z</time>
      </trkpt>
      <trkpt lat="44.87243" lon="3.91181">
        <ele>946.07</ele>
        <time>2025-04-06T13:36:17Z</time>
      </trkpt>
      <trkpt lat="44.87245" lon="3.91176">
        <ele>948</ele>
        <time>2025-04-06T13:36:40Z</time>
      </trkpt>
      <trkpt lat="44.87246" lon="3.91168">
        <ele>945.11</ele>
        <time>2025-04-06T13:36:48Z</time>
      </trkpt>
      <trkpt lat="44.87245" lon="3.91158">
        <ele>944.63</ele>
        <time>2025-04-06T13:36:53Z</time>
      </trkpt>
      <trkpt lat="44.87254" lon="3.91125">
        <ele>947.04</ele>
        <time>2025-04-06T13:37:10Z</time>
      </trkpt>
      <trkpt lat="44.87277" lon="3.91087">
        <ele>950.4</ele>
        <time>2025-04-06T13:37:30Z</time>
      </trkpt>
      <trkpt lat="44.87285" lon="3.91052">
        <ele>948.96</ele>
        <time>2025-04-06T13:37:46Z</time>
      </trkpt>
      <trkpt lat="44.87305" lon="3.91022">
        <ele>950.88</ele>
        <time>2025-04-06T13:38:03Z</time>
      </trkpt>
      <trkpt lat="44.87334" lon="3.90999">
        <ele>954.25</ele>
        <time>2025-04-06T13:38:23Z</time>
      </trkpt>
      <trkpt lat="44.87363" lon="3.90979">
        <ele>955.21</ele>
        <time>2025-04-06T13:38:41Z</time>
      </trkpt>
      <trkpt lat="44.87387" lon="3.90955">
        <ele>955.69</ele>
        <time>2025-04-06T13:38:59Z</time>
      </trkpt>
      <trkpt lat="44.87396" lon="3.9094">
        <ele>956.17</ele>
        <time>2025-04-06T13:39:10Z</time>
      </trkpt>
      <trkpt lat="44.87411" lon="3.90917">
        <ele>957.61</ele>
        <time>2025-04-06T13:39:29Z</time>
      </trkpt>
      <trkpt lat="44.87423" lon="3.90894">
        <ele>958.09</ele>
        <time>2025-04-06T13:39:42Z</time>
      </trkpt>
      <trkpt lat="44.87436" lon="3.90872">
        <ele>957.61</ele>
        <time>2025-04-06T13:39:56Z</time>
      </trkpt>
      <trkpt lat="44.87437" lon="3.90872">
        <ele>957.61</ele>
        <time>2025-04-06T13:39:57Z</time>
      </trkpt>
      <trkpt lat="44.87439" lon="3.90873">
        <ele>957.61</ele>
        <time>2025-04-06T13:39:58Z</time>
      </trkpt>
      <trkpt lat="44.8744" lon="3.90873">
        <ele>957.61</ele>
        <time>2025-04-06T13:39:59Z</time>
      </trkpt>
      <trkpt lat="44.87441" lon="3.90875">
        <ele>957.61</ele>
        <time>2025-04-06T13:40:00Z</time>
      </trkpt>
      <trkpt lat="44.87443" lon="3.90877">
        <ele>957.13</ele>
        <time>2025-04-06T13:40:01Z</time>
      </trkpt>
      <trkpt lat="44.87445" lon="3.90878">
        <ele>956.65</ele>
        <time>2025-04-06T13:40:02Z</time>
      </trkpt>
      <trkpt lat="44.87467" lon="3.90899">
        <ele>954.73</ele>
        <time>2025-04-06T13:40:22Z</time>
      </trkpt>
      <trkpt lat="44.87496" lon="3.90932">
        <ele>954.25</ele>
        <time>2025-04-06T13:40:44Z</time>
      </trkpt>
      <trkpt lat="44.87528" lon="3.90973">
        <ele>952.32</ele>
        <time>2025-04-06T13:41:10Z</time>
      </trkpt>
      <trkpt lat="44.87556" lon="3.91011">
        <ele>950.4</ele>
        <time>2025-04-06T13:41:35Z</time>
      </trkpt>
      <trkpt lat="44.87576" lon="3.91044">
        <ele>949.44</ele>
        <time>2025-04-06T13:41:56Z</time>
      </trkpt>
      <trkpt lat="44.87596" lon="3.91086">
        <ele>948.96</ele>
        <time>2025-04-06T13:42:21Z</time>
      </trkpt>
      <trkpt lat="44.8762" lon="3.91118">
        <ele>948.96</ele>
        <time>2025-04-06T13:42:43Z</time>
      </trkpt>
      <trkpt lat="44.87644" lon="3.91155">
        <ele>947.04</ele>
        <time>2025-04-06T13:43:06Z</time>
      </trkpt>
      <trkpt lat="44.87641" lon="3.91191">
        <ele>947.04</ele>
        <time>2025-04-06T13:43:25Z</time>
      </trkpt>
      <trkpt lat="44.87641" lon="3.91212">
        <ele>945.11</ele>
        <time>2025-04-06T13:43:42Z</time>
      </trkpt>
      <trkpt lat="44.8764" lon="3.91216">
        <ele>945.59</ele>
        <time>2025-04-06T13:43:59Z</time>
      </trkpt>
      <trkpt lat="44.8764" lon="3.91223">
        <ele>944.63</ele>
        <time>2025-04-06T13:44:04Z</time>
      </trkpt>
      <trkpt lat="44.87649" lon="3.91236">
        <ele>941.27</ele>
        <time>2025-04-06T13:44:22Z</time>
      </trkpt>
      <trkpt lat="44.87665" lon="3.9125">
        <ele>935.02</ele>
        <time>2025-04-06T13:44:40Z</time>
      </trkpt>
      <trkpt lat="44.87676" lon="3.91262">
        <ele>931.17</ele>
        <time>2025-04-06T13:44:59Z</time>
      </trkpt>
      <trkpt lat="44.87685" lon="3.91272">
        <ele>928.77</ele>
        <time>2025-04-06T13:45:15Z</time>
      </trkpt>
      <trkpt lat="44.87693" lon="3.91284">
        <ele>925.41</ele>
        <time>2025-04-06T13:45:31Z</time>
      </trkpt>
      <trkpt lat="44.87702" lon="3.91306">
        <ele>918.2</ele>
        <time>2025-04-06T13:45:50Z</time>
      </trkpt>
      <trkpt lat="44.87709" lon="3.91324">
        <ele>913.87</ele>
        <time>2025-04-06T13:46:07Z</time>
      </trkpt>
      <trkpt lat="44.8772" lon="3.91342">
        <ele>910.99</ele>
        <time>2025-04-06T13:46:28Z</time>
      </trkpt>
      <trkpt lat="44.87731" lon="3.91359">
        <ele>907.62</ele>
        <time>2025-04-06T13:46:47Z</time>
      </trkpt>
      <trkpt lat="44.87739" lon="3.91381">
        <ele>903.78</ele>
        <time>2025-04-06T13:47:06Z</time>
      </trkpt>
      <trkpt lat="44.87744" lon="3.91402">
        <ele>899.45</ele>
        <time>2025-04-06T13:47:22Z</time>
      </trkpt>
      <trkpt lat="44.87744" lon="3.91426">
        <ele>895.12</ele>
        <time>2025-04-06T13:47:42Z</time>
      </trkpt>
      <trkpt lat="44.87751" lon="3.91448">
        <ele>890.32</ele>
        <time>2025-04-06T13:48:01Z</time>
      </trkpt>
      <trkpt lat="44.87761" lon="3.91457">
        <ele>885.99</ele>
        <time>2025-04-06T13:48:19Z</time>
      </trkpt>
      <trkpt lat="44.87777" lon="3.91467">
        <ele>885.51</ele>
        <time>2025-04-06T13:48:39Z</time>
      </trkpt>
      <trkpt lat="44.87787" lon="3.91468">
        <ele>883.11</ele>
        <time>2025-04-06T13:48:57Z</time>
      </trkpt>
      <trkpt lat="44.87804" lon="3.91461">
        <ele>881.67</ele>
        <time>2025-04-06T13:49:16Z</time>
      </trkpt>
      <trkpt lat="44.87825" lon="3.91449">
        <ele>879.26</ele>
        <time>2025-04-06T13:49:39Z</time>
      </trkpt>
      <trkpt lat="44.87846" lon="3.91429">
        <ele>874.46</ele>
        <time>2025-04-06T13:50:03Z</time>
      </trkpt>
      <trkpt lat="44.87866" lon="3.91413">
        <ele>873.98</ele>
        <time>2025-04-06T13:50:24Z</time>
      </trkpt>
      <trkpt lat="44.87891" lon="3.914">
        <ele>870.61</ele>
        <time>2025-04-06T13:50:44Z</time>
      </trkpt>
      <trkpt lat="44.87904" lon="3.91383">
        <ele>865.32</ele>
        <time>2025-04-06T13:51:05Z</time>
      </trkpt>
      <trkpt lat="44.87919" lon="3.91356">
        <ele>861.48</ele>
        <time>2025-04-06T13:51:25Z</time>
      </trkpt>
      <trkpt lat="44.87935" lon="3.9133">
        <ele>853.31</ele>
        <time>2025-04-06T13:51:43Z</time>
      </trkpt>
      <trkpt lat="44.87958" lon="3.91313">
        <ele>847.54</ele>
        <time>2025-04-06T13:52:03Z</time>
      </trkpt>
      <trkpt lat="44.88" lon="3.91314">
        <ele>848.5</ele>
        <time>2025-04-06T13:52:24Z</time>
      </trkpt>
      <trkpt lat="44.88036" lon="3.91319">
        <ele>850.9</ele>
        <time>2025-04-06T13:52:45Z</time>
      </trkpt>
      <trkpt lat="44.88063" lon="3.9133">
        <ele>851.87</ele>
        <time>2025-04-06T13:53:06Z</time>
      </trkpt>
      <trkpt lat="44.8809" lon="3.91349">
        <ele>852.83</ele>
        <time>2025-04-06T13:53:28Z</time>
      </trkpt>
      <trkpt lat="44.88111" lon="3.91375">
        <ele>858.59</ele>
        <time>2025-04-06T13:53:50Z</time>
      </trkpt>
      <trkpt lat="44.88121" lon="3.91411">
        <ele>859.08</ele>
        <time>2025-04-06T13:54:14Z</time>
      </trkpt>
      <trkpt lat="44.88141" lon="3.91444">
        <ele>864.84</ele>
        <time>2025-04-06T13:54:33Z</time>
      </trkpt>
      <trkpt lat="44.88164" lon="3.9147">
        <ele>868.21</ele>
        <time>2025-04-06T13:54:54Z</time>
      </trkpt>
      <trkpt lat="44.88186" lon="3.91471">
        <ele>879.26</ele>
        <time>2025-04-06T13:55:15Z</time>
      </trkpt>
      <trkpt lat="44.88209" lon="3.91458">
        <ele>881.67</ele>
        <time>2025-04-06T13:55:37Z</time>
      </trkpt>
      <trkpt lat="44.88232" lon="3.91429">
        <ele>876.86</ele>
        <time>2025-04-06T13:55:58Z</time>
      </trkpt>
      <trkpt lat="44.8826" lon="3.91414">
        <ele>876.86</ele>
        <time>2025-04-06T13:56:19Z</time>
      </trkpt>
      <trkpt lat="44.88301" lon="3.91409">
        <ele>880.71</ele>
        <time>2025-04-06T13:56:42Z</time>
      </trkpt>
      <trkpt lat="44.8832" lon="3.91386">
        <ele>880.22</ele>
        <time>2025-04-06T13:57:01Z</time>
      </trkpt>
      <trkpt lat="44.88327" lon="3.91372">
        <ele>879.26</ele>
        <time>2025-04-06T13:57:09Z</time>
      </trkpt>
      <trkpt lat="44.88345" lon="3.91348">
        <ele>888.4</ele>
        <time>2025-04-06T13:57:25Z</time>
      </trkpt>
      <trkpt lat="44.88365" lon="3.91331">
        <ele>893.2</ele>
        <time>2025-04-06T13:57:44Z</time>
      </trkpt>
      <trkpt lat="44.88381" lon="3.9132">
        <ele>896.09</ele>
        <time>2025-04-06T13:57:58Z</time>
      </trkpt>
      <trkpt lat="44.88388" lon="3.91315">
        <ele>897.05</ele>
        <time>2025-04-06T13:58:02Z</time>
      </trkpt>
      <trkpt lat="44.88412" lon="3.91303">
        <ele>898.01</ele>
        <time>2025-04-06T13:58:18Z</time>
      </trkpt>
      <trkpt lat="44.88439" lon="3.91296">
        <ele>895.61</ele>
        <time>2025-04-06T13:58:36Z</time>
      </trkpt>
      <trkpt lat="44.88451" lon="3.91299">
        <ele>894.16</ele>
        <time>2025-04-06T13:58:42Z</time>
      </trkpt>
      <trkpt lat="44.88481" lon="3.91315">
        <ele>889.36</ele>
        <time>2025-04-06T13:59:01Z</time>
      </trkpt>
      <trkpt lat="44.88517" lon="3.91314">
        <ele>888.4</ele>
        <time>2025-04-06T13:59:22Z</time>
      </trkpt>
      <trkpt lat="44.88546" lon="3.91321">
        <ele>891.28</ele>
        <time>2025-04-06T13:59:44Z</time>
      </trkpt>
      <trkpt lat="44.88568" lon="3.91341">
        <ele>893.68</ele>
        <time>2025-04-06T14:00:05Z</time>
      </trkpt>
      <trkpt lat="44.88573" lon="3.91377">
        <ele>888.4</ele>
        <time>2025-04-06T14:00:26Z</time>
      </trkpt>
      <trkpt lat="44.88594" lon="3.91394">
        <ele>884.07</ele>
        <time>2025-04-06T14:00:47Z</time>
      </trkpt>
      <trkpt lat="44.88617" lon="3.91392">
        <ele>882.15</ele>
        <time>2025-04-06T14:01:04Z</time>
      </trkpt>
      <trkpt lat="44.88648" lon="3.91387">
        <ele>883.11</ele>
        <time>2025-04-06T14:01:27Z</time>
      </trkpt>
      <trkpt lat="44.88674" lon="3.91367">
        <ele>878.78</ele>
        <time>2025-04-06T14:01:49Z</time>
      </trkpt>
      <trkpt lat="44.88698" lon="3.91346">
        <ele>875.9</ele>
        <time>2025-04-06T14:02:07Z</time>
      </trkpt>
      <trkpt lat="44.88721" lon="3.91329">
        <ele>873.01</ele>
        <time>2025-04-06T14:02:25Z</time>
      </trkpt>
      <trkpt lat="44.88749" lon="3.91333">
        <ele>870.13</ele>
        <time>2025-04-06T14:02:48Z</time>
      </trkpt>
      <trkpt lat="44.88774" lon="3.91334">
        <ele>865.8</ele>
        <time>2025-04-06T14:03:09Z</time>
      </trkpt>
      <trkpt lat="44.88803" lon="3.91337">
        <ele>859.08</ele>
        <time>2025-04-06T14:03:30Z</time>
      </trkpt>
      <trkpt lat="44.88825" lon="3.91344">
        <ele>852.35</ele>
        <time>2025-04-06T14:03:48Z</time>
      </trkpt>
      <trkpt lat="44.88847" lon="3.91349">
        <ele>846.1</ele>
        <time>2025-04-06T14:04:06Z</time>
      </trkpt>
      <trkpt lat="44.8887" lon="3.91355">
        <ele>838.41</ele>
        <time>2025-04-06T14:04:27Z</time>
      </trkpt>
      <trkpt lat="44.88892" lon="3.91363">
        <ele>832.64</ele>
        <time>2025-04-06T14:04:46Z</time>
      </trkpt>
      <trkpt lat="44.88915" lon="3.91368">
        <ele>826.87</ele>
        <time>2025-04-06T14:05:08Z</time>
      </trkpt>
      <trkpt lat="44.88934" lon="3.91378">
        <ele>819.18</ele>
        <time>2025-04-06T14:05:29Z</time>
      </trkpt>
      <trkpt lat="44.88954" lon="3.9138">
        <ele>811.01</ele>
        <time>2025-04-06T14:05:48Z</time>
      </trkpt>
      <trkpt lat="44.88969" lon="3.9138">
        <ele>803.8</ele>
        <time>2025-04-06T14:06:07Z</time>
      </trkpt>
      <trkpt lat="44.8897" lon="3.91403">
        <ele>801.4</ele>
        <time>2025-04-06T14:06:23Z</time>
      </trkpt>
      <trkpt lat="44.88984" lon="3.91413">
        <ele>796.11</ele>
        <time>2025-04-06T14:06:40Z</time>
      </trkpt>
      <trkpt lat="44.89013" lon="3.91414">
        <ele>793.22</ele>
        <time>2025-04-06T14:07:00Z</time>
      </trkpt>
      <trkpt lat="44.89028" lon="3.91416">
        <ele>789.86</ele>
        <time>2025-04-06T14:07:16Z</time>
      </trkpt>
      <trkpt lat="44.89024" lon="3.91444">
        <ele>790.34</ele>
        <time>2025-04-06T14:07:32Z</time>
      </trkpt>
      <trkpt lat="44.89024" lon="3.91439">
        <ele>787.46</ele>
        <time>2025-04-06T14:07:49Z</time>
      </trkpt>
      <trkpt lat="44.89021" lon="3.91483">
        <ele>789.38</ele>
        <time>2025-04-06T14:08:11Z</time>
      </trkpt>
      <trkpt lat="44.89026" lon="3.9152">
        <ele>785.53</ele>
        <time>2025-04-06T14:08:31Z</time>
      </trkpt>
      <trkpt lat="44.89033" lon="3.91558">
        <ele>786.5</ele>
        <time>2025-04-06T14:08:49Z</time>
      </trkpt>
      <trkpt lat="44.89035" lon="3.91597">
        <ele>791.3</ele>
        <time>2025-04-06T14:09:07Z</time>
      </trkpt>
      <trkpt lat="44.89041" lon="3.91629">
        <ele>793.71</ele>
        <time>2025-04-06T14:09:27Z</time>
      </trkpt>
      <trkpt lat="44.89043" lon="3.91635">
        <ele>796.59</ele>
        <time>2025-04-06T14:09:46Z</time>
      </trkpt>
      <trkpt lat="44.89044" lon="3.91642">
        <ele>796.59</ele>
        <time>2025-04-06T14:10:02Z</time>
      </trkpt>
      <trkpt lat="44.8905" lon="3.91644">
        <ele>795.63</ele>
        <time>2025-04-06T14:10:24Z</time>
      </trkpt>
      <trkpt lat="44.89048" lon="3.91643">
        <ele>795.15</ele>
        <time>2025-04-06T14:10:41Z</time>
      </trkpt>
      <trkpt lat="44.89043" lon="3.91639">
        <ele>794.67</ele>
        <time>2025-04-06T14:10:55Z</time>
      </trkpt>
      <trkpt lat="44.8904" lon="3.91641">
        <ele>796.59</ele>
        <time>2025-04-06T14:11:18Z</time>
      </trkpt>
      <trkpt lat="44.89038" lon="3.91648">
        <ele>797.55</ele>
        <time>2025-04-06T14:11:40Z</time>
      </trkpt>
      <trkpt lat="44.89039" lon="3.91654">
        <ele>798.51</ele>
        <time>2025-04-06T14:12:00Z</time>
      </trkpt>
      <trkpt lat="44.89039" lon="3.91644">
        <ele>798.99</ele>
        <time>2025-04-06T14:12:23Z</time>
      </trkpt>
      <trkpt lat="44.8904" lon="3.91646">
        <ele>798.03</ele>
        <time>2025-04-06T14:12:38Z</time>
      </trkpt>
      <trkpt lat="44.89036" lon="3.91657">
        <ele>800.92</ele>
        <time>2025-04-06T14:12:57Z</time>
      </trkpt>
      <trkpt lat="44.89035" lon="3.91651">
        <ele>801.88</ele>
        <time>2025-04-06T14:13:12Z</time>
      </trkpt>
      <trkpt lat="44.89037" lon="3.91636">
        <ele>802.84</ele>
        <time>2025-04-06T14:13:26Z</time>
      </trkpt>
      <trkpt lat="44.8904" lon="3.91635">
        <ele>803.8</ele>
        <time>2025-04-06T14:13:49Z</time>
      </trkpt>
      <trkpt lat="44.89042" lon="3.91637">
        <ele>803.32</ele>
        <time>2025-04-06T14:13:57Z</time>
      </trkpt>
      <trkpt lat="44.89041" lon="3.91655">
        <ele>800.92</ele>
        <time>2025-04-06T14:14:12Z</time>
      </trkpt>
      <trkpt lat="44.89037" lon="3.91664">
        <ele>801.4</ele>
        <time>2025-04-06T14:14:31Z</time>
      </trkpt>
      <trkpt lat="44.89034" lon="3.91661">
        <ele>799.47</ele>
        <time>2025-04-06T14:14:49Z</time>
      </trkpt>
      <trkpt lat="44.89042" lon="3.91643">
        <ele>801.88</ele>
        <time>2025-04-06T14:15:04Z</time>
      </trkpt>
      <trkpt lat="44.89039" lon="3.91651">
        <ele>800.44</ele>
        <time>2025-04-06T14:15:24Z</time>
      </trkpt>
      <trkpt lat="44.89039" lon="3.91642">
        <ele>800.44</ele>
        <time>2025-04-06T14:15:41Z</time>
      </trkpt>
      <trkpt lat="44.89044" lon="3.91636">
        <ele>800.92</ele>
        <time>2025-04-06T14:15:59Z</time>
      </trkpt>
      <trkpt lat="44.89048" lon="3.91627">
        <ele>803.32</ele>
        <time>2025-04-06T14:16:15Z</time>
      </trkpt>
      <trkpt lat="44.89049" lon="3.91627">
        <ele>803.8</ele>
        <time>2025-04-06T14:16:35Z</time>
      </trkpt>
      <trkpt lat="44.89051" lon="3.91628">
        <ele>802.84</ele>
        <time>2025-04-06T14:16:43Z</time>
      </trkpt>
      <trkpt lat="44.89057" lon="3.91617">
        <ele>804.28</ele>
        <time>2025-04-06T14:16:50Z</time>
      </trkpt>
      <trkpt lat="44.8906" lon="3.91567">
        <ele>811.01</ele>
        <time>2025-04-06T14:17:12Z</time>
      </trkpt>
      <trkpt lat="44.89066" lon="3.91527">
        <ele>814.85</ele>
        <time>2025-04-06T14:17:33Z</time>
      </trkpt>
      <trkpt lat="44.89073" lon="3.91479">
        <ele>820.14</ele>
        <time>2025-04-06T14:17:54Z</time>
      </trkpt>
      <trkpt lat="44.89083" lon="3.91445">
        <ele>819.66</ele>
        <time>2025-04-06T14:18:11Z</time>
      </trkpt>
      <trkpt lat="44.89097" lon="3.91407">
        <ele>817.74</ele>
        <time>2025-04-06T14:18:32Z</time>
      </trkpt>
      <trkpt lat="44.89108" lon="3.91369">
        <ele>820.62</ele>
        <time>2025-04-06T14:18:52Z</time>
      </trkpt>
      <trkpt lat="44.89123" lon="3.91328">
        <ele>823.99</ele>
        <time>2025-04-06T14:19:12Z</time>
      </trkpt>
      <trkpt lat="44.89135" lon="3.91296">
        <ele>825.91</ele>
        <time>2025-04-06T14:19:29Z</time>
      </trkpt>
      <trkpt lat="44.8915" lon="3.91256">
        <ele>828.31</ele>
        <time>2025-04-06T14:19:49Z</time>
      </trkpt>
      <trkpt lat="44.89167" lon="3.91213">
        <ele>831.2</ele>
        <time>2025-04-06T14:20:12Z</time>
      </trkpt>
      <trkpt lat="44.89187" lon="3.91172">
        <ele>833.12</ele>
        <time>2025-04-06T14:20:34Z</time>
      </trkpt>
      <trkpt lat="44.89207" lon="3.91128">
        <ele>834.56</ele>
        <time>2025-04-06T14:20:54Z</time>
      </trkpt>
      <trkpt lat="44.89219" lon="3.91081">
        <ele>836</ele>
        <time>2025-04-06T14:21:16Z</time>
      </trkpt>
      <trkpt lat="44.89223" lon="3.91036">
        <ele>838.41</ele>
        <time>2025-04-06T14:21:34Z</time>
      </trkpt>
      <trkpt lat="44.89223" lon="3.91013">
        <ele>839.37</ele>
        <time>2025-04-06T14:21:44Z</time>
      </trkpt>
      <trkpt lat="44.89229" lon="3.91023">
        <ele>843.69</ele>
        <time>2025-04-06T14:21:54Z</time>
      </trkpt>
      <trkpt lat="44.89232" lon="3.91033">
        <ele>845.14</ele>
        <time>2025-04-06T14:21:59Z</time>
      </trkpt>
      <trkpt lat="44.8924" lon="3.91075">
        <ele>845.62</ele>
        <time>2025-04-06T14:22:18Z</time>
      </trkpt>
      <trkpt lat="44.8924" lon="3.91111">
        <ele>847.06</ele>
        <time>2025-04-06T14:22:32Z</time>
      </trkpt>
      <trkpt lat="44.89235" lon="3.91142">
        <ele>848.02</ele>
        <time>2025-04-06T14:22:46Z</time>
      </trkpt>
      <trkpt lat="44.8923" lon="3.91176">
        <ele>847.54</ele>
        <time>2025-04-06T14:23:04Z</time>
      </trkpt>
      <trkpt lat="44.89221" lon="3.91216">
        <ele>849.46</ele>
        <time>2025-04-06T14:23:22Z</time>
      </trkpt>
      <trkpt lat="44.89222" lon="3.91227">
        <ele>850.42</ele>
        <time>2025-04-06T14:23:27Z</time>
      </trkpt>
      <trkpt lat="44.89223" lon="3.91236">
        <ele>850.9</ele>
        <time>2025-04-06T14:23:31Z</time>
      </trkpt>
      <trkpt lat="44.89223" lon="3.91274">
        <ele>862.92</ele>
        <time>2025-04-06T14:23:49Z</time>
      </trkpt>
      <trkpt lat="44.89226" lon="3.91276">
        <ele>864.84</ele>
        <time>2025-04-06T14:23:53Z</time>
      </trkpt>
      <trkpt lat="44.89232" lon="3.9127">
        <ele>867.25</ele>
        <time>2025-04-06T14:24:02Z</time>
      </trkpt>
      <trkpt lat="44.89232" lon="3.91267">
        <ele>867.73</ele>
        <time>2025-04-06T14:24:04Z</time>
      </trkpt>
      <trkpt lat="44.89249" lon="3.91239">
        <ele>873.01</ele>
        <time>2025-04-06T14:24:24Z</time>
      </trkpt>
      <trkpt lat="44.89266" lon="3.91205">
        <ele>878.78</ele>
        <time>2025-04-06T14:24:45Z</time>
      </trkpt>
      <trkpt lat="44.89286" lon="3.91174">
        <ele>885.51</ele>
        <time>2025-04-06T14:25:07Z</time>
      </trkpt>
      <trkpt lat="44.89301" lon="3.9114">
        <ele>892.24</ele>
        <time>2025-04-06T14:25:26Z</time>
      </trkpt>
      <trkpt lat="44.89316" lon="3.91105">
        <ele>897.05</ele>
        <time>2025-04-06T14:25:47Z</time>
      </trkpt>
      <trkpt lat="44.89328" lon="3.91097">
        <ele>898.49</ele>
        <time>2025-04-06T14:25:56Z</time>
      </trkpt>
      <trkpt lat="44.89346" lon="3.91119">
        <ele>902.82</ele>
        <time>2025-04-06T14:26:16Z</time>
      </trkpt>
      <trkpt lat="44.89347" lon="3.91121">
        <ele>903.3</ele>
        <time>2025-04-06T14:26:17Z</time>
      </trkpt>
      <trkpt lat="44.89354" lon="3.91159">
        <ele>909.54</ele>
        <time>2025-04-06T14:26:36Z</time>
      </trkpt>
      <trkpt lat="44.89364" lon="3.91193">
        <ele>907.14</ele>
        <time>2025-04-06T14:26:54Z</time>
      </trkpt>
      <trkpt lat="44.89369" lon="3.9121">
        <ele>908.58</ele>
        <time>2025-04-06T14:27:05Z</time>
      </trkpt>
      <trkpt lat="44.89378" lon="3.91211">
        <ele>910.03</ele>
        <time>2025-04-06T14:27:12Z</time>
      </trkpt>
      <trkpt lat="44.89379" lon="3.9121">
        <ele>910.03</ele>
        <time>2025-04-06T14:27:14Z</time>
      </trkpt>
      <trkpt lat="44.89378" lon="3.91204">
        <ele>911.47</ele>
        <time>2025-04-06T14:27:18Z</time>
      </trkpt>
      <trkpt lat="44.89382" lon="3.91178">
        <ele>915.31</ele>
        <time>2025-04-06T14:27:36Z</time>
      </trkpt>
      <trkpt lat="44.8938" lon="3.91163">
        <ele>921.08</ele>
        <time>2025-04-06T14:27:51Z</time>
      </trkpt>
      <trkpt lat="44.8938" lon="3.91142">
        <ele>924.45</ele>
        <time>2025-04-06T14:28:03Z</time>
      </trkpt>
      <trkpt lat="44.8938" lon="3.91124">
        <ele>928.29</ele>
        <time>2025-04-06T14:28:15Z</time>
      </trkpt>
      <trkpt lat="44.8938" lon="3.91095">
        <ele>933.1</ele>
        <time>2025-04-06T14:28:31Z</time>
      </trkpt>
      <trkpt lat="44.89382" lon="3.91068">
        <ele>937.42</ele>
        <time>2025-04-06T14:28:44Z</time>
      </trkpt>
      <trkpt lat="44.89382" lon="3.91042">
        <ele>941.75</ele>
        <time>2025-04-06T14:28:56Z</time>
      </trkpt>
      <trkpt lat="44.89384" lon="3.91019">
        <ele>945.11</ele>
        <time>2025-04-06T14:29:07Z</time>
      </trkpt>
      <trkpt lat="44.89383" lon="3.91015">
        <ele>945.59</ele>
        <time>2025-04-06T14:29:10Z</time>
      </trkpt>
      <trkpt lat="44.89383" lon="3.90979">
        <ele>950.88</ele>
        <time>2025-04-06T14:29:29Z</time>
      </trkpt>
      <trkpt lat="44.89383" lon="3.90955">
        <ele>952.32</ele>
        <time>2025-04-06T14:29:41Z</time>
      </trkpt>
      <trkpt lat="44.89385" lon="3.90946">
        <ele>952.8</ele>
        <time>2025-04-06T14:29:45Z</time>
      </trkpt>
      <trkpt lat="44.89382" lon="3.90919">
        <ele>954.73</ele>
        <time>2025-04-06T14:29:59Z</time>
      </trkpt>
      <trkpt lat="44.89395" lon="3.90886">
        <ele>952.8</ele>
        <time>2025-04-06T14:30:16Z</time>
      </trkpt>
      <trkpt lat="44.89404" lon="3.90861">
        <ele>951.36</ele>
        <time>2025-04-06T14:30:29Z</time>
      </trkpt>
      <trkpt lat="44.89413" lon="3.90831">
        <ele>953.28</ele>
        <time>2025-04-06T14:30:47Z</time>
      </trkpt>
      <trkpt lat="44.89428" lon="3.90801">
        <ele>953.77</ele>
        <time>2025-04-06T14:31:04Z</time>
      </trkpt>
      <trkpt lat="44.89449" lon="3.9077">
        <ele>955.69</ele>
        <time>2025-04-06T14:31:23Z</time>
      </trkpt>
      <trkpt lat="44.89472" lon="3.90743">
        <ele>957.13</ele>
        <time>2025-04-06T14:31:43Z</time>
      </trkpt>
      <trkpt lat="44.89495" lon="3.9071">
        <ele>956.65</ele>
        <time>2025-04-06T14:32:04Z</time>
      </trkpt>
      <trkpt lat="44.89519" lon="3.90682">
        <ele>956.65</ele>
        <time>2025-04-06T14:32:23Z</time>
      </trkpt>
      <trkpt lat="44.89542" lon="3.90655">
        <ele>955.69</ele>
        <time>2025-04-06T14:32:43Z</time>
      </trkpt>
      <trkpt lat="44.89565" lon="3.90629">
        <ele>956.17</ele>
        <time>2025-04-06T14:33:02Z</time>
      </trkpt>
      <trkpt lat="44.89589" lon="3.90601">
        <ele>957.13</ele>
        <time>2025-04-06T14:33:22Z</time>
      </trkpt>
      <trkpt lat="44.89612" lon="3.90576">
        <ele>955.69</ele>
        <time>2025-04-06T14:33:39Z</time>
      </trkpt>
      <trkpt lat="44.89641" lon="3.90546">
        <ele>953.77</ele>
        <time>2025-04-06T14:34:00Z</time>
      </trkpt>
      <trkpt lat="44.89674" lon="3.90511">
        <ele>952.8</ele>
        <time>2025-04-06T14:34:23Z</time>
      </trkpt>
      <trkpt lat="44.89706" lon="3.90477">
        <ele>953.77</ele>
        <time>2025-04-06T14:34:45Z</time>
      </trkpt>
      <trkpt lat="44.89736" lon="3.90449">
        <ele>954.25</ele>
        <time>2025-04-06T14:35:07Z</time>
      </trkpt>
      <trkpt lat="44.89775" lon="3.90426">
        <ele>955.21</ele>
        <time>2025-04-06T14:35:32Z</time>
      </trkpt>
      <trkpt lat="44.89808" lon="3.9041">
        <ele>956.65</ele>
        <time>2025-04-06T14:35:54Z</time>
      </trkpt>
      <trkpt lat="44.89836" lon="3.90389">
        <ele>959.05</ele>
        <time>2025-04-06T14:36:15Z</time>
      </trkpt>
      <trkpt lat="44.89865" lon="3.9036">
        <ele>962.42</ele>
        <time>2025-04-06T14:36:39Z</time>
      </trkpt>
      <trkpt lat="44.89884" lon="3.90329">
        <ele>964.34</ele>
        <time>2025-04-06T14:36:57Z</time>
      </trkpt>
      <trkpt lat="44.89908" lon="3.90298">
        <ele>962.42</ele>
        <time>2025-04-06T14:37:15Z</time>
      </trkpt>
      <trkpt lat="44.89926" lon="3.90268">
        <ele>962.42</ele>
        <time>2025-04-06T14:37:32Z</time>
      </trkpt>
      <trkpt lat="44.89946" lon="3.90223">
        <ele>963.38</ele>
        <time>2025-04-06T14:37:55Z</time>
      </trkpt>
      <trkpt lat="44.89968" lon="3.90186">
        <ele>959.05</ele>
        <time>2025-04-06T14:38:18Z</time>
      </trkpt>
      <trkpt lat="44.89983" lon="3.90168">
        <ele>957.61</ele>
        <time>2025-04-06T14:38:34Z</time>
      </trkpt>
      <trkpt lat="44.90009" lon="3.90138">
        <ele>958.57</ele>
        <time>2025-04-06T14:38:55Z</time>
      </trkpt>
      <trkpt lat="44.90012" lon="3.90134">
        <ele>957.61</ele>
        <time>2025-04-06T14:38:57Z</time>
      </trkpt>
      <trkpt lat="44.90024" lon="3.90085">
        <ele>950.4</ele>
        <time>2025-04-06T14:39:18Z</time>
      </trkpt>
      <trkpt lat="44.90027" lon="3.9004">
        <ele>949.44</ele>
        <time>2025-04-06T14:39:38Z</time>
      </trkpt>
      <trkpt lat="44.90029" lon="3.89994">
        <ele>948.96</ele>
        <time>2025-04-06T14:39:57Z</time>
      </trkpt>
      <trkpt lat="44.90015" lon="3.89941">
        <ele>951.84</ele>
        <time>2025-04-06T14:40:20Z</time>
      </trkpt>
      <trkpt lat="44.90021" lon="3.89898">
        <ele>951.84</ele>
        <time>2025-04-06T14:40:39Z</time>
      </trkpt>
      <trkpt lat="44.90037" lon="3.89857">
        <ele>947.52</ele>
        <time>2025-04-06T14:41:00Z</time>
      </trkpt>
      <trkpt lat="44.90025" lon="3.89817">
        <ele>954.25</ele>
        <time>2025-04-06T14:41:18Z</time>
      </trkpt>
      <trkpt lat="44.89997" lon="3.89775">
        <ele>958.57</ele>
        <time>2025-04-06T14:41:42Z</time>
      </trkpt>
      <trkpt lat="44.89972" lon="3.89727">
        <ele>960.98</ele>
        <time>2025-04-06T14:42:07Z</time>
      </trkpt>
      <trkpt lat="44.89949" lon="3.89678">
        <ele>963.86</ele>
        <time>2025-04-06T14:42:31Z</time>
      </trkpt>
      <trkpt lat="44.89923" lon="3.89622">
        <ele>966.26</ele>
        <time>2025-04-06T14:42:58Z</time>
      </trkpt>
      <trkpt lat="44.89892" lon="3.89561">
        <ele>965.3</ele>
        <time>2025-04-06T14:43:28Z</time>
      </trkpt>
      <trkpt lat="44.89861" lon="3.89522">
        <ele>967.22</ele>
        <time>2025-04-06T14:43:52Z</time>
      </trkpt>
      <trkpt lat="44.89842" lon="3.89478">
        <ele>968.18</ele>
        <time>2025-04-06T14:44:13Z</time>
      </trkpt>
      <trkpt lat="44.89823" lon="3.89433">
        <ele>969.15</ele>
        <time>2025-04-06T14:44:35Z</time>
      </trkpt>
      <trkpt lat="44.89798" lon="3.89384">
        <ele>971.07</ele>
        <time>2025-04-06T14:44:59Z</time>
      </trkpt>
      <trkpt lat="44.89803" lon="3.89343">
        <ele>972.03</ele>
        <time>2025-04-06T14:45:17Z</time>
      </trkpt>
      <trkpt lat="44.89811" lon="3.89298">
        <ele>972.51</ele>
        <time>2025-04-06T14:45:35Z</time>
      </trkpt>
      <trkpt lat="44.89805" lon="3.89249">
        <ele>972.03</ele>
        <time>2025-04-06T14:45:55Z</time>
      </trkpt>
      <trkpt lat="44.898" lon="3.89206">
        <ele>973.47</ele>
        <time>2025-04-06T14:46:15Z</time>
      </trkpt>
      <trkpt lat="44.89808" lon="3.89155">
        <ele>974.91</ele>
        <time>2025-04-06T14:46:38Z</time>
      </trkpt>
      <trkpt lat="44.89819" lon="3.8911">
        <ele>975.88</ele>
        <time>2025-04-06T14:46:58Z</time>
      </trkpt>
      <trkpt lat="44.89817" lon="3.89057">
        <ele>975.88</ele>
        <time>2025-04-06T14:47:20Z</time>
      </trkpt>
      <trkpt lat="44.89811" lon="3.88996">
        <ele>975.88</ele>
        <time>2025-04-06T14:47:45Z</time>
      </trkpt>
      <trkpt lat="44.89801" lon="3.88934">
        <ele>976.36</ele>
        <time>2025-04-06T14:48:12Z</time>
      </trkpt>
      <trkpt lat="44.89791" lon="3.88876">
        <ele>978.28</ele>
        <time>2025-04-06T14:48:37Z</time>
      </trkpt>
      <trkpt lat="44.89782" lon="3.88813">
        <ele>978.76</ele>
        <time>2025-04-06T14:49:05Z</time>
      </trkpt>
      <trkpt lat="44.89775" lon="3.88757">
        <ele>981.16</ele>
        <time>2025-04-06T14:49:30Z</time>
      </trkpt>
      <trkpt lat="44.89783" lon="3.88706">
        <ele>979.72</ele>
        <time>2025-04-06T14:49:52Z</time>
      </trkpt>
      <trkpt lat="44.89797" lon="3.8865">
        <ele>980.68</ele>
        <time>2025-04-06T14:50:17Z</time>
      </trkpt>
      <trkpt lat="44.89818" lon="3.88599">
        <ele>980.68</ele>
        <time>2025-04-06T14:50:41Z</time>
      </trkpt>
      <trkpt lat="44.89834" lon="3.88556">
        <ele>980.2</ele>
        <time>2025-04-06T14:51:01Z</time>
      </trkpt>
      <trkpt lat="44.89851" lon="3.88514">
        <ele>980.2</ele>
        <time>2025-04-06T14:51:21Z</time>
      </trkpt>
      <trkpt lat="44.89867" lon="3.88471">
        <ele>980.2</ele>
        <time>2025-04-06T14:51:40Z</time>
      </trkpt>
      <trkpt lat="44.89875" lon="3.88424">
        <ele>979.24</ele>
        <time>2025-04-06T14:52:00Z</time>
      </trkpt>
      <trkpt lat="44.89879" lon="3.88375">
        <ele>978.28</ele>
        <time>2025-04-06T14:52:21Z</time>
      </trkpt>
      <trkpt lat="44.89879" lon="3.88332">
        <ele>977.32</ele>
        <time>2025-04-06T14:52:41Z</time>
      </trkpt>
      <trkpt lat="44.89872" lon="3.88331">
        <ele>977.32</ele>
        <time>2025-04-06T14:52:46Z</time>
      </trkpt>
      <trkpt lat="44.89846" lon="3.88355">
        <ele>977.32</ele>
        <time>2025-04-06T14:53:03Z</time>
      </trkpt>
      <trkpt lat="44.8981" lon="3.8838">
        <ele>978.76</ele>
        <time>2025-04-06T14:53:28Z</time>
      </trkpt>
      <trkpt lat="44.89777" lon="3.88394">
        <ele>979.72</ele>
        <time>2025-04-06T14:53:50Z</time>
      </trkpt>
      <trkpt lat="44.89741" lon="3.88408">
        <ele>981.64</ele>
        <time>2025-04-06T14:54:13Z</time>
      </trkpt>
      <trkpt lat="44.89712" lon="3.88425">
        <ele>980.68</ele>
        <time>2025-04-06T14:54:34Z</time>
      </trkpt>
      <trkpt lat="44.89675" lon="3.88451">
        <ele>982.12</ele>
        <time>2025-04-06T14:55:01Z</time>
      </trkpt>
      <trkpt lat="44.89645" lon="3.88468">
        <ele>982.6</ele>
        <time>2025-04-06T14:55:22Z</time>
      </trkpt>
      <trkpt lat="44.89611" lon="3.88492">
        <ele>983.57</ele>
        <time>2025-04-06T14:55:47Z</time>
      </trkpt>
      <trkpt lat="44.89581" lon="3.88519">
        <ele>985.97</ele>
        <time>2025-04-06T14:56:10Z</time>
      </trkpt>
      <trkpt lat="44.89552" lon="3.88552">
        <ele>987.41</ele>
        <time>2025-04-06T14:56:35Z</time>
      </trkpt>
      <trkpt lat="44.89526" lon="3.88586">
        <ele>987.89</ele>
        <time>2025-04-06T14:56:58Z</time>
      </trkpt>
      <trkpt lat="44.89498" lon="3.88622">
        <ele>987.89</ele>
        <time>2025-04-06T14:57:22Z</time>
      </trkpt>
      <trkpt lat="44.8947" lon="3.88661">
        <ele>986.93</ele>
        <time>2025-04-06T14:57:47Z</time>
      </trkpt>
      <trkpt lat="44.89439" lon="3.88704">
        <ele>987.41</ele>
        <time>2025-04-06T14:58:15Z</time>
      </trkpt>
      <trkpt lat="44.89408" lon="3.88739">
        <ele>986.93</ele>
        <time>2025-04-06T14:58:40Z</time>
      </trkpt>
      <trkpt lat="44.89375" lon="3.88771">
        <ele>985.97</ele>
        <time>2025-04-06T14:59:06Z</time>
      </trkpt>
      <trkpt lat="44.89345" lon="3.88798">
        <ele>985.49</ele>
        <time>2025-04-06T14:59:29Z</time>
      </trkpt>
      <trkpt lat="44.89309" lon="3.88827">
        <ele>986.45</ele>
        <time>2025-04-06T14:59:56Z</time>
      </trkpt>
      <trkpt lat="44.89275" lon="3.88856">
        <ele>985.97</ele>
        <time>2025-04-06T15:00:21Z</time>
      </trkpt>
      <trkpt lat="44.89248" lon="3.88873">
        <ele>984.05</ele>
        <time>2025-04-06T15:00:41Z</time>
      </trkpt>
      <trkpt lat="44.89214" lon="3.88882">
        <ele>982.12</ele>
        <time>2025-04-06T15:01:05Z</time>
      </trkpt>
      <trkpt lat="44.8918" lon="3.88892">
        <ele>980.68</ele>
        <time>2025-04-06T15:01:29Z</time>
      </trkpt>
      <trkpt lat="44.89147" lon="3.88902">
        <ele>982.12</ele>
        <time>2025-04-06T15:01:50Z</time>
      </trkpt>
      <trkpt lat="44.89115" lon="3.88907">
        <ele>983.57</ele>
        <time>2025-04-06T15:02:11Z</time>
      </trkpt>
      <trkpt lat="44.8909" lon="3.88915">
        <ele>984.05</ele>
        <time>2025-04-06T15:02:29Z</time>
      </trkpt>
      <trkpt lat="44.89056" lon="3.88927">
        <ele>986.45</ele>
        <time>2025-04-06T15:02:51Z</time>
      </trkpt>
      <trkpt lat="44.89033" lon="3.88936">
        <ele>986.45</ele>
        <time>2025-04-06T15:03:08Z</time>
      </trkpt>
      <trkpt lat="44.89004" lon="3.88944">
        <ele>986.93</ele>
        <time>2025-04-06T15:03:28Z</time>
      </trkpt>
      <trkpt lat="44.88989" lon="3.88951">
        <ele>987.89</ele>
        <time>2025-04-06T15:03:42Z</time>
      </trkpt>
      <trkpt lat="44.88957" lon="3.88967">
        <ele>989.33</ele>
        <time>2025-04-06T15:04:03Z</time>
      </trkpt>
      <trkpt lat="44.88955" lon="3.8897">
        <ele>989.33</ele>
        <time>2025-04-06T15:04:06Z</time>
      </trkpt>
      <trkpt lat="44.88952" lon="3.88976">
        <ele>987.89</ele>
        <time>2025-04-06T15:04:10Z</time>
      </trkpt>
      <trkpt lat="44.88951" lon="3.88998">
        <ele>986.93</ele>
        <time>2025-04-06T15:04:28Z</time>
      </trkpt>
      <trkpt lat="44.88975" lon="3.89015">
        <ele>985.49</ele>
        <time>2025-04-06T15:04:49Z</time>
      </trkpt>
      <trkpt lat="44.88977" lon="3.8901">
        <ele>985.97</ele>
        <time>2025-04-06T15:05:11Z</time>
      </trkpt>
      <trkpt lat="44.88977" lon="3.89016">
        <ele>985.97</ele>
        <time>2025-04-06T15:05:29Z</time>
      </trkpt>
      <trkpt lat="44.88988" lon="3.8903">
        <ele>986.45</ele>
        <time>2025-04-06T15:05:44Z</time>
      </trkpt>
      <trkpt lat="44.89008" lon="3.89054">
        <ele>986.93</ele>
        <time>2025-04-06T15:06:05Z</time>
      </trkpt>
      <trkpt lat="44.89026" lon="3.89076">
        <ele>987.41</ele>
        <time>2025-04-06T15:06:24Z</time>
      </trkpt>
      <trkpt lat="44.89045" lon="3.89097">
        <ele>985.49</ele>
        <time>2025-04-06T15:06:43Z</time>
      </trkpt>
      <trkpt lat="44.89064" lon="3.8912">
        <ele>983.57</ele>
        <time>2025-04-06T15:07:03Z</time>
      </trkpt>
      <trkpt lat="44.89082" lon="3.89145">
        <ele>982.6</ele>
        <time>2025-04-06T15:07:23Z</time>
      </trkpt>
      <trkpt lat="44.89099" lon="3.89168">
        <ele>982.12</ele>
        <time>2025-04-06T15:07:45Z</time>
      </trkpt>
      <trkpt lat="44.89114" lon="3.89197">
        <ele>983.57</ele>
        <time>2025-04-06T15:08:05Z</time>
      </trkpt>
      <trkpt lat="44.89119" lon="3.89218">
        <ele>981.64</ele>
        <time>2025-04-06T15:08:20Z</time>
      </trkpt>
      <trkpt lat="44.89111" lon="3.89231">
        <ele>981.16</ele>
        <time>2025-04-06T15:08:37Z</time>
      </trkpt>
      <trkpt lat="44.89108" lon="3.89227">
        <ele>980.2</ele>
        <time>2025-04-06T15:08:58Z</time>
      </trkpt>
      <trkpt lat="44.89107" lon="3.89228">
        <ele>978.28</ele>
        <time>2025-04-06T15:09:20Z</time>
      </trkpt>
      <trkpt lat="44.89106" lon="3.89234">
        <ele>977.32</ele>
        <time>2025-04-06T15:09:37Z</time>
      </trkpt>
      <trkpt lat="44.89105" lon="3.89232">
        <ele>977.8</ele>
        <time>2025-04-06T15:10:01Z</time>
      </trkpt>
      <trkpt lat="44.89106" lon="3.89231">
        <ele>982.6</ele>
        <time>2025-04-06T15:10:26Z</time>
      </trkpt>
      <trkpt lat="44.89109" lon="3.89226">
        <ele>984.53</ele>
        <time>2025-04-06T15:10:48Z</time>
      </trkpt>
      <trkpt lat="44.8911" lon="3.89226">
        <ele>985.01</ele>
        <time>2025-04-06T15:11:10Z</time>
      </trkpt>
      <trkpt lat="44.89108" lon="3.8923">
        <ele>984.53</ele>
        <time>2025-04-06T15:11:31Z</time>
      </trkpt>
      <trkpt lat="44.8911" lon="3.89233">
        <ele>982.12</ele>
        <time>2025-04-06T15:11:49Z</time>
      </trkpt>
      <trkpt lat="44.89109" lon="3.89232">
        <ele>982.12</ele>
        <time>2025-04-06T15:12:04Z</time>
      </trkpt>
      <trkpt lat="44.8911" lon="3.89232">
        <ele>981.64</ele>
        <time>2025-04-06T15:12:19Z</time>
      </trkpt>
      <trkpt lat="44.89108" lon="3.89234">
        <ele>981.64</ele>
        <time>2025-04-06T15:12:36Z</time>
      </trkpt>
      <trkpt lat="44.89106" lon="3.89231">
        <ele>982.6</ele>
        <time>2025-04-06T15:12:56Z</time>
      </trkpt>
      <trkpt lat="44.89107" lon="3.8923">
        <ele>984.05</ele>
        <time>2025-04-06T15:13:22Z</time>
      </trkpt>
      <trkpt lat="44.89108" lon="3.89234">
        <ele>986.93</ele>
        <time>2025-04-06T15:13:49Z</time>
      </trkpt>
      <trkpt lat="44.89109" lon="3.89231">
        <ele>985.49</ele>
        <time>2025-04-06T15:14:12Z</time>
      </trkpt>
      <trkpt lat="44.89108" lon="3.89232">
        <ele>987.41</ele>
        <time>2025-04-06T15:14:45Z</time>
      </trkpt>
      <trkpt lat="44.89105" lon="3.8923">
        <ele>985.97</ele>
        <time>2025-04-06T15:15:05Z</time>
      </trkpt>
      <trkpt lat="44.89107" lon="3.89233">
        <ele>983.57</ele>
        <time>2025-04-06T15:15:30Z</time>
      </trkpt>
      <trkpt lat="44.89105" lon="3.8923">
        <ele>983.09</ele>
        <time>2025-04-06T15:15:52Z</time>
      </trkpt>
      <trkpt lat="44.89107" lon="3.89234">
        <ele>982.6</ele>
        <time>2025-04-06T15:16:13Z</time>
      </trkpt>
      <trkpt lat="44.89106" lon="3.89233">
        <ele>983.57</ele>
        <time>2025-04-06T15:16:29Z</time>
      </trkpt>
      <trkpt lat="44.89108" lon="3.89234">
        <ele>984.53</ele>
        <time>2025-04-06T15:16:51Z</time>
      </trkpt>
      <trkpt lat="44.89107" lon="3.89232">
        <ele>985.97</ele>
        <time>2025-04-06T15:17:10Z</time>
      </trkpt>
      <trkpt lat="44.89107" lon="3.89233">
        <ele>984.53</ele>
        <time>2025-04-06T15:17:35Z</time>
      </trkpt>
      <trkpt lat="44.89107" lon="3.89231">
        <ele>984.53</ele>
        <time>2025-04-06T15:17:57Z</time>
      </trkpt>
      <trkpt lat="44.89105" lon="3.89231">
        <ele>984.05</ele>
        <time>2025-04-06T15:18:20Z</time>
      </trkpt>
      <trkpt lat="44.89105" lon="3.89232">
        <ele>984.05</ele>
        <time>2025-04-06T15:18:45Z</time>
      </trkpt>
      <trkpt lat="44.89107" lon="3.89229">
        <ele>985.97</ele>
        <time>2025-04-06T15:19:09Z</time>
      </trkpt>
      <trkpt lat="44.89105" lon="3.89233">
        <ele>983.57</ele>
        <time>2025-04-06T15:19:34Z</time>
      </trkpt>
      <trkpt lat="44.89105" lon="3.89231">
        <ele>983.09</ele>
        <time>2025-04-06T15:19:54Z</time>
      </trkpt>
      <trkpt lat="44.89108" lon="3.89229">
        <ele>983.57</ele>
        <time>2025-04-06T15:20:20Z</time>
      </trkpt>
      <trkpt lat="44.89109" lon="3.89231">
        <ele>983.09</ele>
        <time>2025-04-06T15:20:38Z</time>
      </trkpt>
      <trkpt lat="44.89107" lon="3.89233">
        <ele>982.12</ele>
        <time>2025-04-06T15:20:53Z</time>
      </trkpt>
      <trkpt lat="44.89107" lon="3.89231">
        <ele>983.57</ele>
        <time>2025-04-06T15:21:09Z</time>
      </trkpt>
      <trkpt lat="44.89107" lon="3.8923">
        <ele>985.97</ele>
        <time>2025-04-06T15:21:27Z</time>
      </trkpt>
      <trkpt lat="44.89107" lon="3.89227">
        <ele>985.97</ele>
        <time>2025-04-06T15:21:47Z</time>
      </trkpt>
      <trkpt lat="44.89109" lon="3.8923">
        <ele>985.01</ele>
        <time>2025-04-06T15:22:05Z</time>
      </trkpt>
      <trkpt lat="44.89106" lon="3.89236">
        <ele>983.57</ele>
        <time>2025-04-06T15:22:10Z</time>
      </trkpt>
      <trkpt lat="44.89098" lon="3.8924">
        <ele>984.05</ele>
        <time>2025-04-06T15:22:23Z</time>
      </trkpt>
      <trkpt lat="44.89096" lon="3.89238">
        <ele>984.53</ele>
        <time>2025-04-06T15:22:26Z</time>
      </trkpt>
      <trkpt lat="44.89094" lon="3.89236">
        <ele>985.01</ele>
        <time>2025-04-06T15:22:28Z</time>
      </trkpt>
      <trkpt lat="44.89088" lon="3.89215">
        <ele>985.01</ele>
        <time>2025-04-06T15:22:44Z</time>
      </trkpt>
      <trkpt lat="44.89083" lon="3.89196">
        <ele>985.01</ele>
        <time>2025-04-06T15:22:58Z</time>
      </trkpt>
      <trkpt lat="44.89078" lon="3.89189">
        <ele>985.01</ele>
        <time>2025-04-06T15:23:14Z</time>
      </trkpt>
      <trkpt lat="44.89072" lon="3.89186">
        <ele>985.97</ele>
        <time>2025-04-06T15:23:22Z</time>
      </trkpt>
      <trkpt lat="44.89066" lon="3.89189">
        <ele>985.49</ele>
        <time>2025-04-06T15:23:29Z</time>
      </trkpt>
      <trkpt lat="44.89061" lon="3.89192">
        <ele>985.97</ele>
        <time>2025-04-06T15:23:46Z</time>
      </trkpt>
    </trkseg>
  </trk>
</gpx>